<?xml version="1.0" encoding="UTF-8"?>
<gpx version="1.1" creator="Endomondo.com" xsi:schemaLocation="http://www.topografix.com/GPX/1/1 http://www.topografix.com/GPX/1/1/gpx.xsd http://www.garmin.com/xmlschemas/GpxExtensions/v3 http://www.garmin.com/xmlschemas/GpxExtensionsv3.xsd http://www.garmin.com/xmlschemas/TrackPointExtension/v1 http://www.garmin.com/xmlschemas/TrackPointExtensionv1.xsd" xmlns="http://www.topografix.com/GPX/1/1" xmlns:gpxtpx="http://www.garmin.com/xmlschemas/TrackPointExtension/v1" xmlns:gpxx="http://www.garmin.com/xmlschemas/GpxExtensions/v3" xmlns:xsi="http://www.w3.org/2001/XMLSchema-instance">
 <metadata>
 <author>
 <name>Jan-Philippe Schilt</name>
 <email id="jp.schilt" domain="gmail.com"/>
 </author>
 <link href="http://www.endomondo.com">
 <text>Endomondo</text>
 </link>
 <time>2014-08-14T21:39:02Z</time>
 </metadata>
 <trk>
 <name>DD-KaiWerth-DD</name>
 <src>http://www.endomondo.com/</src>
 <link href="https://www.endomondo.com/workouts/353472417/1055794">
 <text>DD-KaiWerth-DD</text>
 </link>
 <type>CYCLING_SPORT</type>
 <trkseg>
 <trkpt lat="51.237799" lon="6.77057">
 <time>2014-06-07T19:59:51Z</time>
 </trkpt>
 <trkpt lat="51.237799" lon="6.77057">
 <ele>84.0</ele>
 <time>2014-06-07T19:59:52Z</time>
 </trkpt>
 <trkpt lat="51.237886" lon="6.770447">
 <ele>87.0</ele>
 <time>2014-06-07T20:00:06Z</time>
 </trkpt>
 <trkpt lat="51.238179" lon="6.770057">
 <ele>86.0</ele>
 <time>2014-06-07T20:00:14Z</time>
 </trkpt>
 <trkpt lat="51.238596" lon="6.769865">
 <ele>81.0</ele>
 <time>2014-06-07T20:00:21Z</time>
 </trkpt>
 <trkpt lat="51.2389" lon="6.769752">
 <ele>78.0</ele>
 <time>2014-06-07T20:00:26Z</time>
 </trkpt>
 <trkpt lat="51.239292" lon="6.769561">
 <ele>77.0</ele>
 <time>2014-06-07T20:00:33Z</time>
 </trkpt>
 <trkpt lat="51.239577" lon="6.769398">
 <ele>80.0</ele>
 <time>2014-06-07T20:00:38Z</time>
 </trkpt>
 <trkpt lat="51.239842" lon="6.769245">
 <ele>79.0</ele>
 <time>2014-06-07T20:00:43Z</time>
 </trkpt>
 <trkpt lat="51.240048" lon="6.769095">
 <ele>80.0</ele>
 <time>2014-06-07T20:00:47Z</time>
 </trkpt>
 <trkpt lat="51.240407" lon="6.768857">
 <ele>80.0</ele>
 <time>2014-06-07T20:00:54Z</time>
 </trkpt>
 <trkpt lat="51.24074" lon="6.768629">
 <ele>80.0</ele>
 <time>2014-06-07T20:01:00Z</time>
 </trkpt>
 <trkpt lat="51.241062" lon="6.768437">
 <ele>74.0</ele>
 <time>2014-06-07T20:01:06Z</time>
 </trkpt>
 <trkpt lat="51.241376" lon="6.768194">
 <ele>78.0</ele>
 <time>2014-06-07T20:01:12Z</time>
 </trkpt>
 <trkpt lat="51.241641" lon="6.767984">
 <ele>76.0</ele>
 <time>2014-06-07T20:01:17Z</time>
 </trkpt>
 <trkpt lat="51.241851" lon="6.767826">
 <ele>76.0</ele>
 <time>2014-06-07T20:01:21Z</time>
 </trkpt>
 <trkpt lat="51.242086" lon="6.767696">
 <ele>76.0</ele>
 <time>2014-06-07T20:01:25Z</time>
 </trkpt>
 <trkpt lat="51.242366" lon="6.767466">
 <ele>75.0</ele>
 <time>2014-06-07T20:01:30Z</time>
 </trkpt>
 <trkpt lat="51.24265" lon="6.767172">
 <ele>76.0</ele>
 <time>2014-06-07T20:01:36Z</time>
 </trkpt>
 <trkpt lat="51.242924" lon="6.766955">
 <ele>76.0</ele>
 <time>2014-06-07T20:01:41Z</time>
 </trkpt>
 <trkpt lat="51.243214" lon="6.766726">
 <ele>77.0</ele>
 <time>2014-06-07T20:01:46Z</time>
 </trkpt>
 <trkpt lat="51.243559" lon="6.766564">
 <ele>69.0</ele>
 <time>2014-06-07T20:01:51Z</time>
 </trkpt>
 <trkpt lat="51.243851" lon="6.766236">
 <ele>74.0</ele>
 <time>2014-06-07T20:01:57Z</time>
 </trkpt>
 <trkpt lat="51.244081" lon="6.765949">
 <ele>73.0</ele>
 <time>2014-06-07T20:02:02Z</time>
 </trkpt>
 <trkpt lat="51.244332" lon="6.765655">
 <ele>79.0</ele>
 <time>2014-06-07T20:02:07Z</time>
 </trkpt>
 <trkpt lat="51.244607" lon="6.765312">
 <ele>80.0</ele>
 <time>2014-06-07T20:02:13Z</time>
 </trkpt>
 <trkpt lat="51.244844" lon="6.764982">
 <ele>80.0</ele>
 <time>2014-06-07T20:02:18Z</time>
 </trkpt>
 <trkpt lat="51.245174" lon="6.764553">
 <ele>80.0</ele>
 <time>2014-06-07T20:02:25Z</time>
 </trkpt>
 <trkpt lat="51.245411" lon="6.764266">
 <ele>80.0</ele>
 <time>2014-06-07T20:02:30Z</time>
 </trkpt>
 <trkpt lat="51.245644" lon="6.763935">
 <ele>79.0</ele>
 <time>2014-06-07T20:02:35Z</time>
 </trkpt>
 <trkpt lat="51.245885" lon="6.763646">
 <ele>76.0</ele>
 <time>2014-06-07T20:02:40Z</time>
 </trkpt>
 <trkpt lat="51.246242" lon="6.763215">
 <ele>78.0</ele>
 <time>2014-06-07T20:02:47Z</time>
 </trkpt>
 <trkpt lat="51.246489" lon="6.762838">
 <ele>74.0</ele>
 <time>2014-06-07T20:02:53Z</time>
 </trkpt>
 <trkpt lat="51.246653" lon="6.762499">
 <ele>73.0</ele>
 <time>2014-06-07T20:02:58Z</time>
 </trkpt>
 <trkpt lat="51.246916" lon="6.762094">
 <ele>74.0</ele>
 <time>2014-06-07T20:03:04Z</time>
 </trkpt>
 <trkpt lat="51.247059" lon="6.761907">
 <ele>73.0</ele>
 <time>2014-06-07T20:03:07Z</time>
 </trkpt>
 <trkpt lat="51.247375" lon="6.761637">
 <ele>76.0</ele>
 <time>2014-06-07T20:03:14Z</time>
 </trkpt>
 <trkpt lat="51.247609" lon="6.761939">
 <ele>75.0</ele>
 <time>2014-06-07T20:03:19Z</time>
 </trkpt>
 <trkpt lat="51.247833" lon="6.762376">
 <ele>74.0</ele>
 <time>2014-06-07T20:03:25Z</time>
 </trkpt>
 <trkpt lat="51.248032" lon="6.762686">
 <ele>77.0</ele>
 <time>2014-06-07T20:03:31Z</time>
 </trkpt>
 <trkpt lat="51.248159" lon="6.762681">
 <ele>76.0</ele>
 <time>2014-06-07T20:03:39Z</time>
 </trkpt>
 <trkpt lat="51.248364" lon="6.762355">
 <ele>71.0</ele>
 <time>2014-06-07T20:03:45Z</time>
 </trkpt>
 <trkpt lat="51.248615" lon="6.761895">
 <ele>71.0</ele>
 <time>2014-06-07T20:03:52Z</time>
 </trkpt>
 <trkpt lat="51.248837" lon="6.76155">
 <ele>73.0</ele>
 <time>2014-06-07T20:03:57Z</time>
 </trkpt>
 <trkpt lat="51.249123" lon="6.761108">
 <ele>74.0</ele>
 <time>2014-06-07T20:04:04Z</time>
 </trkpt>
 <trkpt lat="51.249243" lon="6.760654">
 <ele>75.0</ele>
 <time>2014-06-07T20:04:09Z</time>
 </trkpt>
 <trkpt lat="51.249405" lon="6.760239">
 <ele>74.0</ele>
 <time>2014-06-07T20:04:14Z</time>
 </trkpt>
 <trkpt lat="51.249612" lon="6.759825">
 <ele>76.0</ele>
 <time>2014-06-07T20:04:19Z</time>
 </trkpt>
 <trkpt lat="51.249815" lon="6.759346">
 <ele>77.0</ele>
 <time>2014-06-07T20:04:25Z</time>
 </trkpt>
 <trkpt lat="51.250039" lon="6.759">
 <ele>73.0</ele>
 <time>2014-06-07T20:04:30Z</time>
 </trkpt>
 <trkpt lat="51.250231" lon="6.758578">
 <ele>75.0</ele>
 <time>2014-06-07T20:04:35Z</time>
 </trkpt>
 <trkpt lat="51.250476" lon="6.758113">
 <ele>78.0</ele>
 <time>2014-06-07T20:04:41Z</time>
 </trkpt>
 <trkpt lat="51.250671" lon="6.757746">
 <ele>77.0</ele>
 <time>2014-06-07T20:04:46Z</time>
 </trkpt>
 <trkpt lat="51.25082" lon="6.757197">
 <ele>75.0</ele>
 <time>2014-06-07T20:04:52Z</time>
 </trkpt>
 <trkpt lat="51.250949" lon="6.75686">
 <ele>73.0</ele>
 <time>2014-06-07T20:04:56Z</time>
 </trkpt>
 <trkpt lat="51.251053" lon="6.756383">
 <ele>72.0</ele>
 <time>2014-06-07T20:05:01Z</time>
 </trkpt>
 <trkpt lat="51.251207" lon="6.755845">
 <ele>72.0</ele>
 <time>2014-06-07T20:05:07Z</time>
 </trkpt>
 <trkpt lat="51.25135" lon="6.755395">
 <ele>71.0</ele>
 <time>2014-06-07T20:05:12Z</time>
 </trkpt>
 <trkpt lat="51.251436" lon="6.754922">
 <ele>73.0</ele>
 <time>2014-06-07T20:05:17Z</time>
 </trkpt>
 <trkpt lat="51.251596" lon="6.75435">
 <ele>74.0</ele>
 <time>2014-06-07T20:05:23Z</time>
 </trkpt>
 <trkpt lat="51.25176" lon="6.753875">
 <ele>75.0</ele>
 <time>2014-06-07T20:05:28Z</time>
 </trkpt>
 <trkpt lat="51.251861" lon="6.753378">
 <ele>77.0</ele>
 <time>2014-06-07T20:05:33Z</time>
 </trkpt>
 <trkpt lat="51.252024" lon="6.752834">
 <ele>74.0</ele>
 <time>2014-06-07T20:05:39Z</time>
 </trkpt>
 <trkpt lat="51.252147" lon="6.752272">
 <ele>75.0</ele>
 <time>2014-06-07T20:05:45Z</time>
 </trkpt>
 <trkpt lat="51.252262" lon="6.751802">
 <ele>77.0</ele>
 <time>2014-06-07T20:05:50Z</time>
 </trkpt>
 <trkpt lat="51.25238" lon="6.751345">
 <ele>75.0</ele>
 <time>2014-06-07T20:05:55Z</time>
 </trkpt>
 <trkpt lat="51.252521" lon="6.750761">
 <ele>75.0</ele>
 <time>2014-06-07T20:06:01Z</time>
 </trkpt>
 <trkpt lat="51.252659" lon="6.750231">
 <ele>77.0</ele>
 <time>2014-06-07T20:06:06Z</time>
 </trkpt>
 <trkpt lat="51.252827" lon="6.749713">
 <ele>74.0</ele>
 <time>2014-06-07T20:06:12Z</time>
 </trkpt>
 <trkpt lat="51.252987" lon="6.749154">
 <ele>73.0</ele>
 <time>2014-06-07T20:06:18Z</time>
 </trkpt>
 <trkpt lat="51.25312" lon="6.748694">
 <ele>76.0</ele>
 <time>2014-06-07T20:06:23Z</time>
 </trkpt>
 <trkpt lat="51.253283" lon="6.748098">
 <ele>74.0</ele>
 <time>2014-06-07T20:06:30Z</time>
 </trkpt>
 <trkpt lat="51.253432" lon="6.747639">
 <ele>77.0</ele>
 <time>2014-06-07T20:06:35Z</time>
 </trkpt>
 <trkpt lat="51.253564" lon="6.747177">
 <ele>74.0</ele>
 <time>2014-06-07T20:06:41Z</time>
 </trkpt>
 <trkpt lat="51.253666" lon="6.746734">
 <ele>76.0</ele>
 <time>2014-06-07T20:06:46Z</time>
 </trkpt>
 <trkpt lat="51.253786" lon="6.746292">
 <ele>77.0</ele>
 <time>2014-06-07T20:06:51Z</time>
 </trkpt>
 <trkpt lat="51.253908" lon="6.745763">
 <ele>77.0</ele>
 <time>2014-06-07T20:06:57Z</time>
 </trkpt>
 <trkpt lat="51.254072" lon="6.74527">
 <ele>76.0</ele>
 <time>2014-06-07T20:07:03Z</time>
 </trkpt>
 <trkpt lat="51.254208" lon="6.744768">
 <ele>74.0</ele>
 <time>2014-06-07T20:07:09Z</time>
 </trkpt>
 <trkpt lat="51.254327" lon="6.744297">
 <ele>77.0</ele>
 <time>2014-06-07T20:07:14Z</time>
 </trkpt>
 <trkpt lat="51.254452" lon="6.743839">
 <ele>78.0</ele>
 <time>2014-06-07T20:07:19Z</time>
 </trkpt>
 <trkpt lat="51.254666" lon="6.743389">
 <ele>80.0</ele>
 <time>2014-06-07T20:07:25Z</time>
 </trkpt>
 <trkpt lat="51.25486" lon="6.743385">
 <ele>83.0</ele>
 <time>2014-06-07T20:07:30Z</time>
 </trkpt>
 <trkpt lat="51.255012" lon="6.7429">
 <ele>81.0</ele>
 <time>2014-06-07T20:07:40Z</time>
 </trkpt>
 <trkpt lat="51.255193" lon="6.7424">
 <ele>77.0</ele>
 <time>2014-06-07T20:07:47Z</time>
 </trkpt>
 <trkpt lat="51.255205" lon="6.742148">
 <ele>76.0</ele>
 <time>2014-06-07T20:07:50Z</time>
 </trkpt>
 <trkpt lat="51.255269" lon="6.741904">
 <ele>74.0</ele>
 <time>2014-06-07T20:07:53Z</time>
 </trkpt>
 <trkpt lat="51.255428" lon="6.741307">
 <ele>77.0</ele>
 <time>2014-06-07T20:08:00Z</time>
 </trkpt>
 <trkpt lat="51.255534" lon="6.740904">
 <ele>76.0</ele>
 <time>2014-06-07T20:08:05Z</time>
 </trkpt>
 <trkpt lat="51.255663" lon="6.740441">
 <ele>82.0</ele>
 <time>2014-06-07T20:08:11Z</time>
 </trkpt>
 <trkpt lat="51.255801" lon="6.74004">
 <ele>74.0</ele>
 <time>2014-06-07T20:08:17Z</time>
 </trkpt>
 <trkpt lat="51.255913" lon="6.739616">
 <ele>76.0</ele>
 <time>2014-06-07T20:08:23Z</time>
 </trkpt>
 <trkpt lat="51.256032" lon="6.739205">
 <ele>74.0</ele>
 <time>2014-06-07T20:08:30Z</time>
 </trkpt>
 <trkpt lat="51.256167" lon="6.738788">
 <ele>73.0</ele>
 <time>2014-06-07T20:08:36Z</time>
 </trkpt>
 <trkpt lat="51.256317" lon="6.738322">
 <ele>77.0</ele>
 <time>2014-06-07T20:08:42Z</time>
 </trkpt>
 <trkpt lat="51.25643" lon="6.737907">
 <ele>73.0</ele>
 <time>2014-06-07T20:08:47Z</time>
 </trkpt>
 <trkpt lat="51.256554" lon="6.737448">
 <ele>72.0</ele>
 <time>2014-06-07T20:08:52Z</time>
 </trkpt>
 <trkpt lat="51.25671" lon="6.736975">
 <ele>71.0</ele>
 <time>2014-06-07T20:08:59Z</time>
 </trkpt>
 <trkpt lat="51.256849" lon="6.736439">
 <ele>70.0</ele>
 <time>2014-06-07T20:09:04Z</time>
 </trkpt>
 <trkpt lat="51.257" lon="6.736005">
 <ele>70.0</ele>
 <time>2014-06-07T20:09:09Z</time>
 </trkpt>
 <trkpt lat="51.257182" lon="6.73553">
 <ele>66.0</ele>
 <time>2014-06-07T20:09:15Z</time>
 </trkpt>
 <trkpt lat="51.257354" lon="6.735005">
 <ele>64.0</ele>
 <time>2014-06-07T20:09:21Z</time>
 </trkpt>
 <trkpt lat="51.257436" lon="6.734579">
 <ele>64.0</ele>
 <time>2014-06-07T20:09:26Z</time>
 </trkpt>
 <trkpt lat="51.257562" lon="6.734158">
 <ele>66.0</ele>
 <time>2014-06-07T20:09:32Z</time>
 </trkpt>
 <trkpt lat="51.25769" lon="6.733662">
 <ele>70.0</ele>
 <time>2014-06-07T20:09:38Z</time>
 </trkpt>
 <trkpt lat="51.257763" lon="6.733248">
 <ele>75.0</ele>
 <time>2014-06-07T20:09:43Z</time>
 </trkpt>
 <trkpt lat="51.257894" lon="6.732673">
 <ele>76.0</ele>
 <time>2014-06-07T20:09:50Z</time>
 </trkpt>
 <trkpt lat="51.258023" lon="6.732228">
 <ele>78.0</ele>
 <time>2014-06-07T20:09:55Z</time>
 </trkpt>
 <trkpt lat="51.258142" lon="6.731812">
 <ele>80.0</ele>
 <time>2014-06-07T20:10:00Z</time>
 </trkpt>
 <trkpt lat="51.258291" lon="6.73135">
 <ele>69.0</ele>
 <time>2014-06-07T20:10:06Z</time>
 </trkpt>
 <trkpt lat="51.258392" lon="6.730858">
 <ele>71.0</ele>
 <time>2014-06-07T20:10:11Z</time>
 </trkpt>
 <trkpt lat="51.258535" lon="6.730249">
 <ele>73.0</ele>
 <time>2014-06-07T20:10:18Z</time>
 </trkpt>
 <trkpt lat="51.258661" lon="6.7298">
 <ele>70.0</ele>
 <time>2014-06-07T20:10:23Z</time>
 </trkpt>
 <trkpt lat="51.258809" lon="6.729351">
 <ele>74.0</ele>
 <time>2014-06-07T20:10:28Z</time>
 </trkpt>
 <trkpt lat="51.258921" lon="6.72882">
 <ele>75.0</ele>
 <time>2014-06-07T20:10:34Z</time>
 </trkpt>
 <trkpt lat="51.259065" lon="6.728297">
 <ele>78.0</ele>
 <time>2014-06-07T20:10:40Z</time>
 </trkpt>
 <trkpt lat="51.25922" lon="6.727743">
 <ele>74.0</ele>
 <time>2014-06-07T20:10:46Z</time>
 </trkpt>
 <trkpt lat="51.259341" lon="6.727281">
 <ele>71.0</ele>
 <time>2014-06-07T20:10:51Z</time>
 </trkpt>
 <trkpt lat="51.259434" lon="6.726825">
 <ele>68.0</ele>
 <time>2014-06-07T20:10:56Z</time>
 </trkpt>
 <trkpt lat="51.259592" lon="6.726415">
 <ele>68.0</ele>
 <time>2014-06-07T20:11:01Z</time>
 </trkpt>
 <trkpt lat="51.25982" lon="6.725927">
 <ele>70.0</ele>
 <time>2014-06-07T20:11:07Z</time>
 </trkpt>
 <trkpt lat="51.259958" lon="6.725455">
 <ele>69.0</ele>
 <time>2014-06-07T20:11:13Z</time>
 </trkpt>
 <trkpt lat="51.260107" lon="6.725026">
 <ele>71.0</ele>
 <time>2014-06-07T20:11:18Z</time>
 </trkpt>
 <trkpt lat="51.260265" lon="6.724542">
 <ele>68.0</ele>
 <time>2014-06-07T20:11:24Z</time>
 </trkpt>
 <trkpt lat="51.260404" lon="6.724083">
 <ele>70.0</ele>
 <time>2014-06-07T20:11:29Z</time>
 </trkpt>
 <trkpt lat="51.260592" lon="6.72355">
 <ele>70.0</ele>
 <time>2014-06-07T20:11:35Z</time>
 </trkpt>
 <trkpt lat="51.260787" lon="6.722878">
 <ele>73.0</ele>
 <time>2014-06-07T20:11:42Z</time>
 </trkpt>
 <trkpt lat="51.260932" lon="6.722287">
 <ele>75.0</ele>
 <time>2014-06-07T20:11:48Z</time>
 </trkpt>
 <trkpt lat="51.261119" lon="6.721749">
 <ele>75.0</ele>
 <time>2014-06-07T20:11:54Z</time>
 </trkpt>
 <trkpt lat="51.261227" lon="6.721314">
 <ele>74.0</ele>
 <time>2014-06-07T20:11:59Z</time>
 </trkpt>
 <trkpt lat="51.261376" lon="6.720821">
 <ele>75.0</ele>
 <time>2014-06-07T20:12:05Z</time>
 </trkpt>
 <trkpt lat="51.261487" lon="6.720466">
 <ele>75.0</ele>
 <time>2014-06-07T20:12:09Z</time>
 </trkpt>
 <trkpt lat="51.261659" lon="6.719928">
 <ele>77.0</ele>
 <time>2014-06-07T20:12:15Z</time>
 </trkpt>
 <trkpt lat="51.2618" lon="6.719464">
 <ele>79.0</ele>
 <time>2014-06-07T20:12:20Z</time>
 </trkpt>
 <trkpt lat="51.261883" lon="6.719199">
 <ele>78.0</ele>
 <time>2014-06-07T20:12:23Z</time>
 </trkpt>
 <trkpt lat="51.262043" lon="6.718654">
 <ele>78.0</ele>
 <time>2014-06-07T20:12:29Z</time>
 </trkpt>
 <trkpt lat="51.262175" lon="6.718187">
 <ele>76.0</ele>
 <time>2014-06-07T20:12:34Z</time>
 </trkpt>
 <trkpt lat="51.262305" lon="6.717802">
 <ele>78.0</ele>
 <time>2014-06-07T20:12:38Z</time>
 </trkpt>
 <trkpt lat="51.26251" lon="6.717331">
 <ele>77.0</ele>
 <time>2014-06-07T20:12:44Z</time>
 </trkpt>
 <trkpt lat="51.262725" lon="6.716906">
 <ele>78.0</ele>
 <time>2014-06-07T20:12:49Z</time>
 </trkpt>
 <trkpt lat="51.262888" lon="6.716464">
 <ele>75.0</ele>
 <time>2014-06-07T20:12:55Z</time>
 </trkpt>
 <trkpt lat="51.263114" lon="6.715942">
 <ele>76.0</ele>
 <time>2014-06-07T20:13:01Z</time>
 </trkpt>
 <trkpt lat="51.263326" lon="6.715452">
 <ele>73.0</ele>
 <time>2014-06-07T20:13:07Z</time>
 </trkpt>
 <trkpt lat="51.263629" lon="6.714912">
 <ele>75.0</ele>
 <time>2014-06-07T20:13:14Z</time>
 </trkpt>
 <trkpt lat="51.263818" lon="6.714577">
 <ele>71.0</ele>
 <time>2014-06-07T20:13:19Z</time>
 </trkpt>
 <trkpt lat="51.264038" lon="6.714197">
 <ele>72.0</ele>
 <time>2014-06-07T20:13:24Z</time>
 </trkpt>
 <trkpt lat="51.264172" lon="6.713991">
 <ele>72.0</ele>
 <time>2014-06-07T20:13:27Z</time>
 </trkpt>
 <trkpt lat="51.264328" lon="6.713815">
 <ele>70.0</ele>
 <time>2014-06-07T20:13:30Z</time>
 </trkpt>
 <trkpt lat="51.264521" lon="6.71353">
 <ele>72.0</ele>
 <time>2014-06-07T20:13:34Z</time>
 </trkpt>
 <trkpt lat="51.264822" lon="6.713149">
 <ele>72.0</ele>
 <time>2014-06-07T20:13:40Z</time>
 </trkpt>
 <trkpt lat="51.265069" lon="6.712885">
 <ele>71.0</ele>
 <time>2014-06-07T20:13:45Z</time>
 </trkpt>
 <trkpt lat="51.265352" lon="6.712607">
 <ele>72.0</ele>
 <time>2014-06-07T20:13:50Z</time>
 </trkpt>
 <trkpt lat="51.265689" lon="6.712262">
 <ele>73.0</ele>
 <time>2014-06-07T20:13:56Z</time>
 </trkpt>
 <trkpt lat="51.266032" lon="6.71197">
 <ele>76.0</ele>
 <time>2014-06-07T20:14:02Z</time>
 </trkpt>
 <trkpt lat="51.266314" lon="6.711752">
 <ele>77.0</ele>
 <time>2014-06-07T20:14:07Z</time>
 </trkpt>
 <trkpt lat="51.266614" lon="6.711567">
 <ele>79.0</ele>
 <time>2014-06-07T20:14:12Z</time>
 </trkpt>
 <trkpt lat="51.266959" lon="6.711426">
 <ele>75.0</ele>
 <time>2014-06-07T20:14:18Z</time>
 </trkpt>
 <trkpt lat="51.267322" lon="6.71125">
 <ele>76.0</ele>
 <time>2014-06-07T20:14:24Z</time>
 </trkpt>
 <trkpt lat="51.267499" lon="6.711183">
 <ele>74.0</ele>
 <time>2014-06-07T20:14:27Z</time>
 </trkpt>
 <trkpt lat="51.26786" lon="6.711038">
 <ele>74.0</ele>
 <time>2014-06-07T20:14:33Z</time>
 </trkpt>
 <trkpt lat="51.268047" lon="6.710983">
 <ele>74.0</ele>
 <time>2014-06-07T20:14:36Z</time>
 </trkpt>
 <trkpt lat="51.268248" lon="6.710934">
 <ele>75.0</ele>
 <time>2014-06-07T20:14:39Z</time>
 </trkpt>
 <trkpt lat="51.268641" lon="6.710862">
 <ele>76.0</ele>
 <time>2014-06-07T20:14:45Z</time>
 </trkpt>
 <trkpt lat="51.268956" lon="6.710829">
 <ele>77.0</ele>
 <time>2014-06-07T20:14:50Z</time>
 </trkpt>
 <trkpt lat="51.269141" lon="6.710818">
 <ele>76.0</ele>
 <time>2014-06-07T20:14:53Z</time>
 </trkpt>
 <trkpt lat="51.269472" lon="6.710857">
 <ele>73.0</ele>
 <time>2014-06-07T20:14:59Z</time>
 </trkpt>
 <trkpt lat="51.269923" lon="6.710902">
 <ele>75.0</ele>
 <time>2014-06-07T20:15:05Z</time>
 </trkpt>
 <trkpt lat="51.270314" lon="6.710961">
 <ele>77.0</ele>
 <time>2014-06-07T20:15:11Z</time>
 </trkpt>
 <trkpt lat="51.27061" lon="6.710981">
 <ele>78.0</ele>
 <time>2014-06-07T20:15:16Z</time>
 </trkpt>
 <trkpt lat="51.270991" lon="6.710996">
 <ele>79.0</ele>
 <time>2014-06-07T20:15:22Z</time>
 </trkpt>
 <trkpt lat="51.27136" lon="6.711081">
 <ele>79.0</ele>
 <time>2014-06-07T20:15:28Z</time>
 </trkpt>
 <trkpt lat="51.271738" lon="6.711218">
 <ele>78.0</ele>
 <time>2014-06-07T20:15:34Z</time>
 </trkpt>
 <trkpt lat="51.27206" lon="6.711357">
 <ele>80.0</ele>
 <time>2014-06-07T20:15:39Z</time>
 </trkpt>
 <trkpt lat="51.272436" lon="6.711499">
 <ele>79.0</ele>
 <time>2014-06-07T20:15:45Z</time>
 </trkpt>
 <trkpt lat="51.272763" lon="6.711626">
 <ele>80.0</ele>
 <time>2014-06-07T20:15:50Z</time>
 </trkpt>
 <trkpt lat="51.273088" lon="6.711802">
 <ele>79.0</ele>
 <time>2014-06-07T20:15:55Z</time>
 </trkpt>
 <trkpt lat="51.273366" lon="6.712049">
 <ele>78.0</ele>
 <time>2014-06-07T20:16:00Z</time>
 </trkpt>
 <trkpt lat="51.273754" lon="6.712184">
 <ele>81.0</ele>
 <time>2014-06-07T20:16:06Z</time>
 </trkpt>
 <trkpt lat="51.274125" lon="6.712399">
 <ele>79.0</ele>
 <time>2014-06-07T20:16:12Z</time>
 </trkpt>
 <trkpt lat="51.274429" lon="6.712714">
 <ele>77.0</ele>
 <time>2014-06-07T20:16:17Z</time>
 </trkpt>
 <trkpt lat="51.274754" lon="6.712991">
 <ele>75.0</ele>
 <time>2014-06-07T20:16:22Z</time>
 </trkpt>
 <trkpt lat="51.275002" lon="6.713138">
 <ele>76.0</ele>
 <time>2014-06-07T20:16:25Z</time>
 </trkpt>
 <trkpt lat="51.275505" lon="6.713461">
 <ele>76.0</ele>
 <time>2014-06-07T20:16:31Z</time>
 </trkpt>
 <trkpt lat="51.275896" lon="6.713513">
 <ele>82.0</ele>
 <time>2014-06-07T20:16:36Z</time>
 </trkpt>
 <trkpt lat="51.276277" lon="6.71356">
 <ele>84.0</ele>
 <time>2014-06-07T20:16:42Z</time>
 </trkpt>
 <trkpt lat="51.276569" lon="6.713775">
 <ele>84.0</ele>
 <time>2014-06-07T20:16:47Z</time>
 </trkpt>
 <trkpt lat="51.276932" lon="6.714077">
 <ele>82.0</ele>
 <time>2014-06-07T20:16:53Z</time>
 </trkpt>
 <trkpt lat="51.277219" lon="6.714372">
 <ele>81.0</ele>
 <time>2014-06-07T20:16:58Z</time>
 </trkpt>
 <trkpt lat="51.277492" lon="6.714703">
 <ele>80.0</ele>
 <time>2014-06-07T20:17:03Z</time>
 </trkpt>
 <trkpt lat="51.277755" lon="6.715041">
 <ele>80.0</ele>
 <time>2014-06-07T20:17:08Z</time>
 </trkpt>
 <trkpt lat="51.278005" lon="6.715369">
 <ele>80.0</ele>
 <time>2014-06-07T20:17:13Z</time>
 </trkpt>
 <trkpt lat="51.278308" lon="6.715751">
 <ele>81.0</ele>
 <time>2014-06-07T20:17:19Z</time>
 </trkpt>
 <trkpt lat="51.278564" lon="6.716059">
 <ele>81.0</ele>
 <time>2014-06-07T20:17:25Z</time>
 </trkpt>
 <trkpt lat="51.278857" lon="6.716441">
 <ele>81.0</ele>
 <time>2014-06-07T20:17:30Z</time>
 </trkpt>
 <trkpt lat="51.279012" lon="6.716654">
 <ele>79.0</ele>
 <time>2014-06-07T20:17:33Z</time>
 </trkpt>
 <trkpt lat="51.27927" lon="6.71697">
 <ele>78.0</ele>
 <time>2014-06-07T20:17:38Z</time>
 </trkpt>
 <trkpt lat="51.279551" lon="6.717268">
 <ele>76.0</ele>
 <time>2014-06-07T20:17:43Z</time>
 </trkpt>
 <trkpt lat="51.279873" lon="6.717684">
 <ele>75.0</ele>
 <time>2014-06-07T20:17:49Z</time>
 </trkpt>
 <trkpt lat="51.280131" lon="6.718052">
 <ele>76.0</ele>
 <time>2014-06-07T20:17:54Z</time>
 </trkpt>
 <trkpt lat="51.280294" lon="6.718233">
 <ele>78.0</ele>
 <time>2014-06-07T20:17:57Z</time>
 </trkpt>
 <trkpt lat="51.2805" lon="6.718484">
 <ele>77.0</ele>
 <time>2014-06-07T20:18:01Z</time>
 </trkpt>
 <trkpt lat="51.280755" lon="6.718826">
 <ele>74.0</ele>
 <time>2014-06-07T20:18:06Z</time>
 </trkpt>
 <trkpt lat="51.281078" lon="6.719249">
 <ele>72.0</ele>
 <time>2014-06-07T20:18:12Z</time>
 </trkpt>
 <trkpt lat="51.281356" lon="6.719546">
 <ele>72.0</ele>
 <time>2014-06-07T20:18:17Z</time>
 </trkpt>
 <trkpt lat="51.28162" lon="6.719854">
 <ele>74.0</ele>
 <time>2014-06-07T20:18:22Z</time>
 </trkpt>
 <trkpt lat="51.281944" lon="6.720243">
 <ele>75.0</ele>
 <time>2014-06-07T20:18:28Z</time>
 </trkpt>
 <trkpt lat="51.282216" lon="6.720519">
 <ele>75.0</ele>
 <time>2014-06-07T20:18:33Z</time>
 </trkpt>
 <trkpt lat="51.282381" lon="6.720708">
 <ele>75.0</ele>
 <time>2014-06-07T20:18:36Z</time>
 </trkpt>
 <trkpt lat="51.282526" lon="6.720908">
 <ele>73.0</ele>
 <time>2014-06-07T20:18:39Z</time>
 </trkpt>
 <trkpt lat="51.282867" lon="6.721206">
 <ele>73.0</ele>
 <time>2014-06-07T20:18:45Z</time>
 </trkpt>
 <trkpt lat="51.283208" lon="6.721554">
 <ele>73.0</ele>
 <time>2014-06-07T20:18:51Z</time>
 </trkpt>
 <trkpt lat="51.283497" lon="6.721807">
 <ele>74.0</ele>
 <time>2014-06-07T20:18:56Z</time>
 </trkpt>
 <trkpt lat="51.283912" lon="6.722186">
 <ele>71.0</ele>
 <time>2014-06-07T20:19:03Z</time>
 </trkpt>
 <trkpt lat="51.2842" lon="6.722462">
 <ele>71.0</ele>
 <time>2014-06-07T20:19:08Z</time>
 </trkpt>
 <trkpt lat="51.284516" lon="6.722683">
 <ele>74.0</ele>
 <time>2014-06-07T20:19:13Z</time>
 </trkpt>
 <trkpt lat="51.2848" lon="6.722968">
 <ele>73.0</ele>
 <time>2014-06-07T20:19:18Z</time>
 </trkpt>
 <trkpt lat="51.285149" lon="6.723303">
 <ele>73.0</ele>
 <time>2014-06-07T20:19:24Z</time>
 </trkpt>
 <trkpt lat="51.285456" lon="6.723575">
 <ele>73.0</ele>
 <time>2014-06-07T20:19:29Z</time>
 </trkpt>
 <trkpt lat="51.285634" lon="6.723732">
 <ele>73.0</ele>
 <time>2014-06-07T20:19:32Z</time>
 </trkpt>
 <trkpt lat="51.285956" lon="6.723952">
 <ele>75.0</ele>
 <time>2014-06-07T20:19:37Z</time>
 </trkpt>
 <trkpt lat="51.286312" lon="6.724274">
 <ele>74.0</ele>
 <time>2014-06-07T20:19:43Z</time>
 </trkpt>
 <trkpt lat="51.286598" lon="6.724468">
 <ele>74.0</ele>
 <time>2014-06-07T20:19:48Z</time>
 </trkpt>
 <trkpt lat="51.286889" lon="6.724676">
 <ele>76.0</ele>
 <time>2014-06-07T20:19:54Z</time>
 </trkpt>
 <trkpt lat="51.287099" lon="6.724876">
 <ele>76.0</ele>
 <time>2014-06-07T20:19:58Z</time>
 </trkpt>
 <trkpt lat="51.287371" lon="6.725179">
 <ele>72.0</ele>
 <time>2014-06-07T20:20:03Z</time>
 </trkpt>
 <trkpt lat="51.287733" lon="6.725428">
 <ele>74.0</ele>
 <time>2014-06-07T20:20:09Z</time>
 </trkpt>
 <trkpt lat="51.287914" lon="6.725566">
 <ele>76.0</ele>
 <time>2014-06-07T20:20:12Z</time>
 </trkpt>
 <trkpt lat="51.288096" lon="6.725715">
 <ele>76.0</ele>
 <time>2014-06-07T20:20:15Z</time>
 </trkpt>
 <trkpt lat="51.288404" lon="6.725892">
 <ele>77.0</ele>
 <time>2014-06-07T20:20:20Z</time>
 </trkpt>
 <trkpt lat="51.28877" lon="6.726113">
 <ele>79.0</ele>
 <time>2014-06-07T20:20:26Z</time>
 </trkpt>
 <trkpt lat="51.289127" lon="6.72635">
 <ele>76.0</ele>
 <time>2014-06-07T20:20:32Z</time>
 </trkpt>
 <trkpt lat="51.289456" lon="6.726451">
 <ele>74.0</ele>
 <time>2014-06-07T20:20:38Z</time>
 </trkpt>
 <trkpt lat="51.289863" lon="6.726584">
 <ele>75.0</ele>
 <time>2014-06-07T20:20:43Z</time>
 </trkpt>
 <trkpt lat="51.290288" lon="6.726727">
 <ele>77.0</ele>
 <time>2014-06-07T20:20:49Z</time>
 </trkpt>
 <trkpt lat="51.290657" lon="6.726833">
 <ele>77.0</ele>
 <time>2014-06-07T20:20:54Z</time>
 </trkpt>
 <trkpt lat="51.291074" lon="6.726922">
 <ele>76.0</ele>
 <time>2014-06-07T20:21:00Z</time>
 </trkpt>
 <trkpt lat="51.291348" lon="6.727039">
 <ele>75.0</ele>
 <time>2014-06-07T20:21:04Z</time>
 </trkpt>
 <trkpt lat="51.291768" lon="6.727202">
 <ele>75.0</ele>
 <time>2014-06-07T20:21:10Z</time>
 </trkpt>
 <trkpt lat="51.292107" lon="6.727426">
 <ele>76.0</ele>
 <time>2014-06-07T20:21:15Z</time>
 </trkpt>
 <trkpt lat="51.292433" lon="6.727609">
 <ele>78.0</ele>
 <time>2014-06-07T20:21:20Z</time>
 </trkpt>
 <trkpt lat="51.292619" lon="6.727769">
 <ele>75.0</ele>
 <time>2014-06-07T20:21:23Z</time>
 </trkpt>
 <trkpt lat="51.292812" lon="6.727887">
 <ele>77.0</ele>
 <time>2014-06-07T20:21:26Z</time>
 </trkpt>
 <trkpt lat="51.293178" lon="6.728161">
 <ele>77.0</ele>
 <time>2014-06-07T20:21:32Z</time>
 </trkpt>
 <trkpt lat="51.293426" lon="6.72838">
 <ele>77.0</ele>
 <time>2014-06-07T20:21:36Z</time>
 </trkpt>
 <trkpt lat="51.293776" lon="6.728664">
 <ele>74.0</ele>
 <time>2014-06-07T20:21:42Z</time>
 </trkpt>
 <trkpt lat="51.294076" lon="6.728904">
 <ele>75.0</ele>
 <time>2014-06-07T20:21:47Z</time>
 </trkpt>
 <trkpt lat="51.294434" lon="6.729192">
 <ele>74.0</ele>
 <time>2014-06-07T20:21:53Z</time>
 </trkpt>
 <trkpt lat="51.294713" lon="6.729379">
 <ele>74.0</ele>
 <time>2014-06-07T20:21:58Z</time>
 </trkpt>
 <trkpt lat="51.294989" lon="6.729663">
 <ele>73.0</ele>
 <time>2014-06-07T20:22:03Z</time>
 </trkpt>
 <trkpt lat="51.29528" lon="6.729864">
 <ele>74.0</ele>
 <time>2014-06-07T20:22:08Z</time>
 </trkpt>
 <trkpt lat="51.295513" lon="6.730109">
 <ele>74.0</ele>
 <time>2014-06-07T20:22:15Z</time>
 </trkpt>
 <trkpt lat="51.295763" lon="6.730429">
 <ele>78.0</ele>
 <time>2014-06-07T20:22:21Z</time>
 </trkpt>
 <trkpt lat="51.295954" lon="6.730746">
 <ele>71.0</ele>
 <time>2014-06-07T20:22:26Z</time>
 </trkpt>
 <trkpt lat="51.29622" lon="6.731215">
 <ele>76.0</ele>
 <time>2014-06-07T20:22:32Z</time>
 </trkpt>
 <trkpt lat="51.29651" lon="6.731472">
 <ele>74.0</ele>
 <time>2014-06-07T20:22:37Z</time>
 </trkpt>
 <trkpt lat="51.296918" lon="6.73175">
 <ele>77.0</ele>
 <time>2014-06-07T20:22:43Z</time>
 </trkpt>
 <trkpt lat="51.297081" lon="6.732081">
 <ele>77.0</ele>
 <time>2014-06-07T20:22:48Z</time>
 </trkpt>
 <trkpt lat="51.297255" lon="6.732391">
 <ele>79.0</ele>
 <time>2014-06-07T20:22:53Z</time>
 </trkpt>
 <trkpt lat="51.297473" lon="6.732614">
 <ele>79.0</ele>
 <time>2014-06-07T20:23:00Z</time>
 </trkpt>
 <trkpt lat="51.297589" lon="6.732935">
 <ele>77.0</ele>
 <time>2014-06-07T20:23:06Z</time>
 </trkpt>
 <trkpt lat="51.297394" lon="6.733369">
 <ele>86.0</ele>
 <time>2014-06-07T20:23:14Z</time>
 </trkpt>
 <trkpt lat="51.297219" lon="6.733772">
 <ele>84.0</ele>
 <time>2014-06-07T20:23:20Z</time>
 </trkpt>
 <trkpt lat="51.296975" lon="6.73427">
 <ele>83.0</ele>
 <time>2014-06-07T20:23:27Z</time>
 </trkpt>
 <trkpt lat="51.296794" lon="6.734615">
 <ele>76.0</ele>
 <time>2014-06-07T20:23:32Z</time>
 </trkpt>
 <trkpt lat="51.296609" lon="6.73503">
 <ele>80.0</ele>
 <time>2014-06-07T20:23:38Z</time>
 </trkpt>
 <trkpt lat="51.296382" lon="6.735458">
 <ele>84.0</ele>
 <time>2014-06-07T20:23:44Z</time>
 </trkpt>
 <trkpt lat="51.296082" lon="6.735706">
 <ele>82.0</ele>
 <time>2014-06-07T20:23:50Z</time>
 </trkpt>
 <trkpt lat="51.295668" lon="6.735514">
 <ele>82.0</ele>
 <time>2014-06-07T20:23:57Z</time>
 </trkpt>
 <trkpt lat="51.29538" lon="6.735407">
 <ele>80.0</ele>
 <time>2014-06-07T20:24:02Z</time>
 </trkpt>
 <trkpt lat="51.295061" lon="6.735405">
 <ele>82.0</ele>
 <time>2014-06-07T20:24:07Z</time>
 </trkpt>
 <trkpt lat="51.294675" lon="6.735497">
 <ele>83.0</ele>
 <time>2014-06-07T20:24:13Z</time>
 </trkpt>
 <trkpt lat="51.294359" lon="6.735628">
 <ele>86.0</ele>
 <time>2014-06-07T20:24:18Z</time>
 </trkpt>
 <trkpt lat="51.293985" lon="6.735756">
 <ele>84.0</ele>
 <time>2014-06-07T20:24:24Z</time>
 </trkpt>
 <trkpt lat="51.293607" lon="6.735881">
 <ele>85.0</ele>
 <time>2014-06-07T20:24:30Z</time>
 </trkpt>
 <trkpt lat="51.293233" lon="6.736103">
 <ele>90.0</ele>
 <time>2014-06-07T20:24:36Z</time>
 </trkpt>
 <trkpt lat="51.293033" lon="6.736184">
 <ele>90.0</ele>
 <time>2014-06-07T20:24:39Z</time>
 </trkpt>
 <trkpt lat="51.292841" lon="6.736221">
 <ele>88.0</ele>
 <time>2014-06-07T20:24:42Z</time>
 </trkpt>
 <trkpt lat="51.292501" lon="6.736363">
 <ele>89.0</ele>
 <time>2014-06-07T20:24:47Z</time>
 </trkpt>
 <trkpt lat="51.292033" lon="6.736538">
 <ele>88.0</ele>
 <time>2014-06-07T20:24:54Z</time>
 </trkpt>
 <trkpt lat="51.291649" lon="6.736656">
 <ele>84.0</ele>
 <time>2014-06-07T20:25:00Z</time>
 </trkpt>
 <trkpt lat="51.29132" lon="6.736763">
 <ele>85.0</ele>
 <time>2014-06-07T20:25:05Z</time>
 </trkpt>
 <trkpt lat="51.291134" lon="6.736834">
 <ele>85.0</ele>
 <time>2014-06-07T20:25:08Z</time>
 </trkpt>
 <trkpt lat="51.290828" lon="6.737015">
 <ele>90.0</ele>
 <time>2014-06-07T20:25:13Z</time>
 </trkpt>
 <trkpt lat="51.290424" lon="6.737161">
 <ele>91.0</ele>
 <time>2014-06-07T20:25:19Z</time>
 </trkpt>
 <trkpt lat="51.290107" lon="6.737229">
 <ele>88.0</ele>
 <time>2014-06-07T20:25:24Z</time>
 </trkpt>
 <trkpt lat="51.289768" lon="6.737455">
 <ele>94.0</ele>
 <time>2014-06-07T20:25:29Z</time>
 </trkpt>
 <trkpt lat="51.289361" lon="6.737581">
 <ele>91.0</ele>
 <time>2014-06-07T20:25:35Z</time>
 </trkpt>
 <trkpt lat="51.28903" lon="6.737653">
 <ele>88.0</ele>
 <time>2014-06-07T20:25:40Z</time>
 </trkpt>
 <trkpt lat="51.288702" lon="6.737763">
 <ele>87.0</ele>
 <time>2014-06-07T20:25:45Z</time>
 </trkpt>
 <trkpt lat="51.288258" lon="6.737931">
 <ele>87.0</ele>
 <time>2014-06-07T20:25:52Z</time>
 </trkpt>
 <trkpt lat="51.287891" lon="6.738167">
 <ele>93.0</ele>
 <time>2014-06-07T20:25:58Z</time>
 </trkpt>
 <trkpt lat="51.287584" lon="6.738146">
 <ele>91.0</ele>
 <time>2014-06-07T20:26:03Z</time>
 </trkpt>
 <trkpt lat="51.287303" lon="6.738234">
 <ele>92.0</ele>
 <time>2014-06-07T20:26:08Z</time>
 </trkpt>
 <trkpt lat="51.286969" lon="6.738369">
 <ele>89.0</ele>
 <time>2014-06-07T20:26:14Z</time>
 </trkpt>
 <trkpt lat="51.286715" lon="6.738468">
 <ele>86.0</ele>
 <time>2014-06-07T20:26:19Z</time>
 </trkpt>
 <trkpt lat="51.28649" lon="6.738673">
 <ele>87.0</ele>
 <time>2014-06-07T20:26:24Z</time>
 </trkpt>
 <trkpt lat="51.286383" lon="6.738816">
 <ele>85.0</ele>
 <time>2014-06-07T20:26:27Z</time>
 </trkpt>
 <trkpt lat="51.286188" lon="6.738801">
 <ele>85.0</ele>
 <time>2014-06-07T20:26:34Z</time>
 </trkpt>
 <trkpt lat="51.285848" lon="6.738892">
 <ele>84.0</ele>
 <time>2014-06-07T20:26:42Z</time>
 </trkpt>
 <trkpt lat="51.285556" lon="6.739074">
 <ele>88.0</ele>
 <time>2014-06-07T20:26:48Z</time>
 </trkpt>
 <trkpt lat="51.285222" lon="6.739215">
 <ele>87.0</ele>
 <time>2014-06-07T20:26:54Z</time>
 </trkpt>
 <trkpt lat="51.284929" lon="6.739373">
 <ele>90.0</ele>
 <time>2014-06-07T20:26:59Z</time>
 </trkpt>
 <trkpt lat="51.284625" lon="6.739515">
 <ele>88.0</ele>
 <time>2014-06-07T20:27:05Z</time>
 </trkpt>
 <trkpt lat="51.284257" lon="6.739682">
 <ele>86.0</ele>
 <time>2014-06-07T20:27:10Z</time>
 </trkpt>
 <trkpt lat="51.283884" lon="6.739858">
 <ele>88.0</ele>
 <time>2014-06-07T20:27:16Z</time>
 </trkpt>
 <trkpt lat="51.283564" lon="6.740041">
 <ele>89.0</ele>
 <time>2014-06-07T20:27:21Z</time>
 </trkpt>
 <trkpt lat="51.28335" lon="6.740112">
 <ele>86.0</ele>
 <time>2014-06-07T20:27:24Z</time>
 </trkpt>
 <trkpt lat="51.282933" lon="6.740243">
 <ele>89.0</ele>
 <time>2014-06-07T20:27:30Z</time>
 </trkpt>
 <trkpt lat="51.282602" lon="6.740333">
 <ele>89.0</ele>
 <time>2014-06-07T20:27:35Z</time>
 </trkpt>
 <trkpt lat="51.282194" lon="6.740424">
 <ele>89.0</ele>
 <time>2014-06-07T20:27:41Z</time>
 </trkpt>
 <trkpt lat="51.28174" lon="6.740563">
 <ele>95.0</ele>
 <time>2014-06-07T20:27:48Z</time>
 </trkpt>
 <trkpt lat="51.281306" lon="6.740565">
 <ele>91.0</ele>
 <time>2014-06-07T20:27:54Z</time>
 </trkpt>
 <trkpt lat="51.280907" lon="6.740584">
 <ele>93.0</ele>
 <time>2014-06-07T20:28:00Z</time>
 </trkpt>
 <trkpt lat="51.280526" lon="6.740554">
 <ele>93.0</ele>
 <time>2014-06-07T20:28:06Z</time>
 </trkpt>
 <trkpt lat="51.280208" lon="6.740592">
 <ele>90.0</ele>
 <time>2014-06-07T20:28:11Z</time>
 </trkpt>
 <trkpt lat="51.279809" lon="6.74074">
 <ele>91.0</ele>
 <time>2014-06-07T20:28:17Z</time>
 </trkpt>
 <trkpt lat="51.279629" lon="6.740751">
 <ele>88.0</ele>
 <time>2014-06-07T20:28:20Z</time>
 </trkpt>
 <trkpt lat="51.279449" lon="6.740808">
 <ele>88.0</ele>
 <time>2014-06-07T20:28:23Z</time>
 </trkpt>
 <trkpt lat="51.279275" lon="6.740904">
 <ele>89.0</ele>
 <time>2014-06-07T20:28:26Z</time>
 </trkpt>
 <trkpt lat="51.279095" lon="6.741002">
 <ele>89.0</ele>
 <time>2014-06-07T20:28:29Z</time>
 </trkpt>
 <trkpt lat="51.278864" lon="6.741103">
 <ele>88.0</ele>
 <time>2014-06-07T20:28:33Z</time>
 </trkpt>
 <trkpt lat="51.278571" lon="6.74127">
 <ele>88.0</ele>
 <time>2014-06-07T20:28:38Z</time>
 </trkpt>
 <trkpt lat="51.278305" lon="6.741432">
 <ele>90.0</ele>
 <time>2014-06-07T20:28:43Z</time>
 </trkpt>
 <trkpt lat="51.278147" lon="6.741597">
 <ele>90.0</ele>
 <time>2014-06-07T20:28:46Z</time>
 </trkpt>
 <trkpt lat="51.27786" lon="6.741776">
 <ele>86.0</ele>
 <time>2014-06-07T20:28:51Z</time>
 </trkpt>
 <trkpt lat="51.277698" lon="6.741911">
 <ele>86.0</ele>
 <time>2014-06-07T20:28:54Z</time>
 </trkpt>
 <trkpt lat="51.277396" lon="6.742126">
 <ele>88.0</ele>
 <time>2014-06-07T20:29:00Z</time>
 </trkpt>
 <trkpt lat="51.277156" lon="6.742329">
 <ele>87.0</ele>
 <time>2014-06-07T20:29:05Z</time>
 </trkpt>
 <trkpt lat="51.276875" lon="6.742523">
 <ele>84.0</ele>
 <time>2014-06-07T20:29:10Z</time>
 </trkpt>
 <trkpt lat="51.276528" lon="6.742717">
 <ele>82.0</ele>
 <time>2014-06-07T20:29:16Z</time>
 </trkpt>
 <trkpt lat="51.27627" lon="6.742927">
 <ele>84.0</ele>
 <time>2014-06-07T20:29:21Z</time>
 </trkpt>
 <trkpt lat="51.275886" lon="6.743226">
 <ele>85.0</ele>
 <time>2014-06-07T20:29:28Z</time>
 </trkpt>
 <trkpt lat="51.275607" lon="6.743414">
 <ele>82.0</ele>
 <time>2014-06-07T20:29:34Z</time>
 </trkpt>
 <trkpt lat="51.275192" lon="6.743692">
 <ele>81.0</ele>
 <time>2014-06-07T20:29:40Z</time>
 </trkpt>
 <trkpt lat="51.274862" lon="6.744011">
 <ele>84.0</ele>
 <time>2014-06-07T20:29:45Z</time>
 </trkpt>
 <trkpt lat="51.274536" lon="6.744229">
 <ele>85.0</ele>
 <time>2014-06-07T20:29:50Z</time>
 </trkpt>
 <trkpt lat="51.274111" lon="6.744472">
 <ele>85.0</ele>
 <time>2014-06-07T20:29:56Z</time>
 </trkpt>
 <trkpt lat="51.273787" lon="6.744661">
 <ele>86.0</ele>
 <time>2014-06-07T20:30:01Z</time>
 </trkpt>
 <trkpt lat="51.273538" lon="6.744707">
 <ele>86.0</ele>
 <time>2014-06-07T20:30:06Z</time>
 </trkpt>
 <trkpt lat="51.273214" lon="6.744945">
 <ele>84.0</ele>
 <time>2014-06-07T20:30:13Z</time>
 </trkpt>
 <trkpt lat="51.273048" lon="6.745047">
 <ele>86.0</ele>
 <time>2014-06-07T20:30:16Z</time>
 </trkpt>
 <trkpt lat="51.272724" lon="6.745187">
 <ele>84.0</ele>
 <time>2014-06-07T20:30:22Z</time>
 </trkpt>
 <trkpt lat="51.272394" lon="6.745412">
 <ele>91.0</ele>
 <time>2014-06-07T20:30:28Z</time>
 </trkpt>
 <trkpt lat="51.272027" lon="6.745599">
 <ele>90.0</ele>
 <time>2014-06-07T20:30:34Z</time>
 </trkpt>
 <trkpt lat="51.271849" lon="6.74568">
 <ele>89.0</ele>
 <time>2014-06-07T20:30:37Z</time>
 </trkpt>
 <trkpt lat="51.271526" lon="6.745816">
 <ele>90.0</ele>
 <time>2014-06-07T20:30:42Z</time>
 </trkpt>
 <trkpt lat="51.271139" lon="6.746014">
 <ele>95.0</ele>
 <time>2014-06-07T20:30:48Z</time>
 </trkpt>
 <trkpt lat="51.270685" lon="6.746257">
 <ele>95.0</ele>
 <time>2014-06-07T20:30:55Z</time>
 </trkpt>
 <trkpt lat="51.270378" lon="6.746453">
 <ele>96.0</ele>
 <time>2014-06-07T20:31:00Z</time>
 </trkpt>
 <trkpt lat="51.270018" lon="6.746745">
 <ele>92.0</ele>
 <time>2014-06-07T20:31:06Z</time>
 </trkpt>
 <trkpt lat="51.269616" lon="6.747097">
 <ele>89.0</ele>
 <time>2014-06-07T20:31:12Z</time>
 </trkpt>
 <trkpt lat="51.269294" lon="6.747562">
 <ele>89.0</ele>
 <time>2014-06-07T20:31:18Z</time>
 </trkpt>
 <trkpt lat="51.26903" lon="6.747944">
 <ele>86.0</ele>
 <time>2014-06-07T20:31:23Z</time>
 </trkpt>
 <trkpt lat="51.268734" lon="6.748452">
 <ele>82.0</ele>
 <time>2014-06-07T20:31:29Z</time>
 </trkpt>
 <trkpt lat="51.268483" lon="6.748857">
 <ele>81.0</ele>
 <time>2014-06-07T20:31:34Z</time>
 </trkpt>
 <trkpt lat="51.268191" lon="6.749321">
 <ele>80.0</ele>
 <time>2014-06-07T20:31:40Z</time>
 </trkpt>
 <trkpt lat="51.267986" lon="6.749603">
 <ele>86.0</ele>
 <time>2014-06-07T20:31:44Z</time>
 </trkpt>
 <trkpt lat="51.267473" lon="6.749896">
 <ele>86.0</ele>
 <time>2014-06-07T20:31:53Z</time>
 </trkpt>
 <trkpt lat="51.267101" lon="6.75018">
 <ele>87.0</ele>
 <time>2014-06-07T20:31:58Z</time>
 </trkpt>
 <trkpt lat="51.266843" lon="6.75055">
 <ele>98.0</ele>
 <time>2014-06-07T20:32:03Z</time>
 </trkpt>
 <trkpt lat="51.266503" lon="6.750915">
 <ele>99.0</ele>
 <time>2014-06-07T20:32:09Z</time>
 </trkpt>
 <trkpt lat="51.266182" lon="6.751164">
 <ele>92.0</ele>
 <time>2014-06-07T20:32:15Z</time>
 </trkpt>
 <trkpt lat="51.266016" lon="6.751347">
 <ele>88.0</ele>
 <time>2014-06-07T20:32:18Z</time>
 </trkpt>
 <trkpt lat="51.265739" lon="6.751699">
 <ele>88.0</ele>
 <time>2014-06-07T20:32:25Z</time>
 </trkpt>
 <trkpt lat="51.265391" lon="6.751926">
 <ele>87.0</ele>
 <time>2014-06-07T20:32:30Z</time>
 </trkpt>
 <trkpt lat="51.265118" lon="6.752167">
 <ele>88.0</ele>
 <time>2014-06-07T20:32:35Z</time>
 </trkpt>
 <trkpt lat="51.264875" lon="6.752492">
 <ele>88.0</ele>
 <time>2014-06-07T20:32:40Z</time>
 </trkpt>
 <trkpt lat="51.264592" lon="6.752747">
 <ele>87.0</ele>
 <time>2014-06-07T20:32:45Z</time>
 </trkpt>
 <trkpt lat="51.264213" lon="6.752945">
 <ele>88.0</ele>
 <time>2014-06-07T20:32:51Z</time>
 </trkpt>
 <trkpt lat="51.263872" lon="6.753087">
 <ele>89.0</ele>
 <time>2014-06-07T20:32:57Z</time>
 </trkpt>
 <trkpt lat="51.263576" lon="6.753171">
 <ele>81.0</ele>
 <time>2014-06-07T20:33:02Z</time>
 </trkpt>
 <trkpt lat="51.263247" lon="6.753277">
 <ele>82.0</ele>
 <time>2014-06-07T20:33:08Z</time>
 </trkpt>
 <trkpt lat="51.262989" lon="6.753334">
 <ele>82.0</ele>
 <time>2014-06-07T20:33:13Z</time>
 </trkpt>
 <trkpt lat="51.262722" lon="6.753429">
 <ele>83.0</ele>
 <time>2014-06-07T20:33:18Z</time>
 </trkpt>
 <trkpt lat="51.262391" lon="6.753548">
 <ele>84.0</ele>
 <time>2014-06-07T20:33:24Z</time>
 </trkpt>
 <trkpt lat="51.262136" lon="6.753511">
 <ele>86.0</ele>
 <time>2014-06-07T20:33:29Z</time>
 </trkpt>
 <trkpt lat="51.261883" lon="6.753642">
 <ele>80.0</ele>
 <time>2014-06-07T20:33:34Z</time>
 </trkpt>
 <trkpt lat="51.261545" lon="6.753693">
 <ele>79.0</ele>
 <time>2014-06-07T20:33:40Z</time>
 </trkpt>
 <trkpt lat="51.26122" lon="6.753748">
 <ele>77.0</ele>
 <time>2014-06-07T20:33:46Z</time>
 </trkpt>
 <trkpt lat="51.260906" lon="6.753875">
 <ele>76.0</ele>
 <time>2014-06-07T20:33:52Z</time>
 </trkpt>
 <trkpt lat="51.260657" lon="6.753954">
 <ele>75.0</ele>
 <time>2014-06-07T20:33:57Z</time>
 </trkpt>
 <trkpt lat="51.260455" lon="6.754023">
 <ele>80.0</ele>
 <time>2014-06-07T20:34:01Z</time>
 </trkpt>
 <trkpt lat="51.260198" lon="6.754099">
 <ele>85.0</ele>
 <time>2014-06-07T20:34:07Z</time>
 </trkpt>
 <trkpt lat="51.259997" lon="6.754159">
 <ele>83.0</ele>
 <time>2014-06-07T20:34:12Z</time>
 </trkpt>
 <trkpt lat="51.259811" lon="6.754183">
 <ele>81.0</ele>
 <time>2014-06-07T20:34:17Z</time>
 </trkpt>
 <trkpt lat="51.259568" lon="6.754359">
 <ele>80.0</ele>
 <time>2014-06-07T20:34:23Z</time>
 </trkpt>
 <trkpt lat="51.259352" lon="6.754369">
 <ele>82.0</ele>
 <time>2014-06-07T20:34:29Z</time>
 </trkpt>
 <trkpt lat="51.25885" lon="6.754533">
 <ele>80.0</ele>
 <time>2014-06-07T20:34:38Z</time>
 </trkpt>
 <trkpt lat="51.258613" lon="6.754614">
 <ele>79.0</ele>
 <time>2014-06-07T20:34:43Z</time>
 </trkpt>
 <trkpt lat="51.258357" lon="6.754633">
 <ele>78.0</ele>
 <time>2014-06-07T20:34:48Z</time>
 </trkpt>
 <trkpt lat="51.258204" lon="6.754666">
 <ele>77.0</ele>
 <time>2014-06-07T20:34:52Z</time>
 </trkpt>
 <trkpt lat="51.25781" lon="6.754823">
 <ele>76.0</ele>
 <time>2014-06-07T20:35:00Z</time>
 </trkpt>
 <trkpt lat="51.257506" lon="6.754883">
 <ele>77.0</ele>
 <time>2014-06-07T20:35:05Z</time>
 </trkpt>
 <trkpt lat="51.257184" lon="6.754936">
 <ele>81.0</ele>
 <time>2014-06-07T20:35:12Z</time>
 </trkpt>
 <trkpt lat="51.256963" lon="6.755063">
 <ele>83.0</ele>
 <time>2014-06-07T20:35:18Z</time>
 </trkpt>
 <trkpt lat="51.256723" lon="6.755222">
 <ele>83.0</ele>
 <time>2014-06-07T20:35:24Z</time>
 </trkpt>
 <trkpt lat="51.256413" lon="6.755262">
 <ele>82.0</ele>
 <time>2014-06-07T20:35:30Z</time>
 </trkpt>
 <trkpt lat="51.256194" lon="6.755328">
 <ele>81.0</ele>
 <time>2014-06-07T20:35:36Z</time>
 </trkpt>
 <trkpt lat="51.255969" lon="6.755434">
 <ele>81.0</ele>
 <time>2014-06-07T20:35:44Z</time>
 </trkpt>
 <trkpt lat="51.255672" lon="6.755568">
 <ele>93.0</ele>
 <time>2014-06-07T20:35:54Z</time>
 </trkpt>
 <trkpt lat="51.255408" lon="6.755765">
 <ele>94.0</ele>
 <time>2014-06-07T20:35:59Z</time>
 </trkpt>
 <trkpt lat="51.255124" lon="6.755917">
 <ele>92.0</ele>
 <time>2014-06-07T20:36:04Z</time>
 </trkpt>
 <trkpt lat="51.254873" lon="6.75608">
 <ele>94.0</ele>
 <time>2014-06-07T20:36:09Z</time>
 </trkpt>
 <trkpt lat="51.254466" lon="6.756413">
 <ele>92.0</ele>
 <time>2014-06-07T20:36:16Z</time>
 </trkpt>
 <trkpt lat="51.254215" lon="6.756701">
 <ele>86.0</ele>
 <time>2014-06-07T20:36:21Z</time>
 </trkpt>
 <trkpt lat="51.253879" lon="6.757122">
 <ele>86.0</ele>
 <time>2014-06-07T20:36:28Z</time>
 </trkpt>
 <trkpt lat="51.253721" lon="6.757546">
 <ele>89.0</ele>
 <time>2014-06-07T20:36:34Z</time>
 </trkpt>
 <trkpt lat="51.253583" lon="6.757919">
 <ele>88.0</ele>
 <time>2014-06-07T20:36:39Z</time>
 </trkpt>
 <trkpt lat="51.253403" lon="6.758301">
 <ele>87.0</ele>
 <time>2014-06-07T20:36:44Z</time>
 </trkpt>
 <trkpt lat="51.253249" lon="6.758744">
 <ele>88.0</ele>
 <time>2014-06-07T20:36:49Z</time>
 </trkpt>
 <trkpt lat="51.25304" lon="6.759145">
 <ele>84.0</ele>
 <time>2014-06-07T20:36:54Z</time>
 </trkpt>
 <trkpt lat="51.252867" lon="6.759552">
 <ele>86.0</ele>
 <time>2014-06-07T20:37:00Z</time>
 </trkpt>
 <trkpt lat="51.252716" lon="6.759998">
 <ele>87.0</ele>
 <time>2014-06-07T20:37:06Z</time>
 </trkpt>
 <trkpt lat="51.252606" lon="6.760208">
 <ele>85.0</ele>
 <time>2014-06-07T20:37:09Z</time>
 </trkpt>
 <trkpt lat="51.252404" lon="6.760679">
 <ele>83.0</ele>
 <time>2014-06-07T20:37:15Z</time>
 </trkpt>
 <trkpt lat="51.252218" lon="6.761174">
 <ele>84.0</ele>
 <time>2014-06-07T20:37:21Z</time>
 </trkpt>
 <trkpt lat="51.252011" lon="6.761573">
 <ele>81.0</ele>
 <time>2014-06-07T20:37:27Z</time>
 </trkpt>
 <trkpt lat="51.251848" lon="6.762085">
 <ele>83.0</ele>
 <time>2014-06-07T20:37:33Z</time>
 </trkpt>
 <trkpt lat="51.251601" lon="6.762526">
 <ele>80.0</ele>
 <time>2014-06-07T20:37:39Z</time>
 </trkpt>
 <trkpt lat="51.251375" lon="6.762886">
 <ele>85.0</ele>
 <time>2014-06-07T20:37:44Z</time>
 </trkpt>
 <trkpt lat="51.251231" lon="6.763098">
 <ele>85.0</ele>
 <time>2014-06-07T20:37:47Z</time>
 </trkpt>
 <trkpt lat="51.251071" lon="6.763284">
 <ele>82.0</ele>
 <time>2014-06-07T20:37:50Z</time>
 </trkpt>
 <trkpt lat="51.250672" lon="6.763734">
 <ele>82.0</ele>
 <time>2014-06-07T20:37:57Z</time>
 </trkpt>
 <trkpt lat="51.250471" lon="6.764204">
 <ele>82.0</ele>
 <time>2014-06-07T20:38:03Z</time>
 </trkpt>
 <trkpt lat="51.250224" lon="6.76448">
 <ele>84.0</ele>
 <time>2014-06-07T20:38:08Z</time>
 </trkpt>
 <trkpt lat="51.250063" lon="6.764647">
 <ele>82.0</ele>
 <time>2014-06-07T20:38:11Z</time>
 </trkpt>
 <trkpt lat="51.249765" lon="6.765048">
 <ele>82.0</ele>
 <time>2014-06-07T20:38:17Z</time>
 </trkpt>
 <trkpt lat="51.249487" lon="6.765363">
 <ele>84.0</ele>
 <time>2014-06-07T20:38:22Z</time>
 </trkpt>
 <trkpt lat="51.249199" lon="6.765792">
 <ele>90.0</ele>
 <time>2014-06-07T20:38:28Z</time>
 </trkpt>
 <trkpt lat="51.24899" lon="6.766103">
 <ele>100.0</ele>
 <time>2014-06-07T20:38:33Z</time>
 </trkpt>
 <trkpt lat="51.248589" lon="6.766333">
 <ele>104.0</ele>
 <time>2014-06-07T20:38:39Z</time>
 </trkpt>
 <trkpt lat="51.248294" lon="6.766541">
 <ele>103.0</ele>
 <time>2014-06-07T20:38:44Z</time>
 </trkpt>
 <trkpt lat="51.247977" lon="6.766779">
 <ele>107.0</ele>
 <time>2014-06-07T20:38:50Z</time>
 </trkpt>
 <trkpt lat="51.247667" lon="6.767069">
 <ele>105.0</ele>
 <time>2014-06-07T20:38:55Z</time>
 </trkpt>
 <trkpt lat="51.247392" lon="6.767358">
 <ele>105.0</ele>
 <time>2014-06-07T20:39:00Z</time>
 </trkpt>
 <trkpt lat="51.247114" lon="6.767739">
 <ele>104.0</ele>
 <time>2014-06-07T20:39:06Z</time>
 </trkpt>
 <trkpt lat="51.246745" lon="6.768088">
 <ele>99.0</ele>
 <time>2014-06-07T20:39:12Z</time>
 </trkpt>
 <trkpt lat="51.246545" lon="6.768205">
 <ele>98.0</ele>
 <time>2014-06-07T20:39:19Z</time>
 </trkpt>
 <trkpt lat="51.246243" lon="6.768688">
 <ele>106.0</ele>
 <time>2014-06-07T20:39:30Z</time>
 </trkpt>
 <trkpt lat="51.246002" lon="6.769002">
 <ele>106.0</ele>
 <time>2014-06-07T20:39:37Z</time>
 </trkpt>
 <trkpt lat="51.245727" lon="6.769326">
 <ele>108.0</ele>
 <time>2014-06-07T20:39:42Z</time>
 </trkpt>
 <trkpt lat="51.245431" lon="6.769622">
 <ele>103.0</ele>
 <time>2014-06-07T20:39:47Z</time>
 </trkpt>
 <trkpt lat="51.245162" lon="6.76987">
 <ele>104.0</ele>
 <time>2014-06-07T20:39:53Z</time>
 </trkpt>
 <trkpt lat="51.244841" lon="6.770152">
 <ele>101.0</ele>
 <time>2014-06-07T20:39:59Z</time>
 </trkpt>
 <trkpt lat="51.244627" lon="6.770458">
 <ele>98.0</ele>
 <time>2014-06-07T20:40:04Z</time>
 </trkpt>
 <trkpt lat="51.244348" lon="6.770887">
 <ele>100.0</ele>
 <time>2014-06-07T20:40:11Z</time>
 </trkpt>
 <trkpt lat="51.244062" lon="6.771286">
 <ele>99.0</ele>
 <time>2014-06-07T20:40:17Z</time>
 </trkpt>
 <trkpt lat="51.243808" lon="6.771602">
 <ele>99.0</ele>
 <time>2014-06-07T20:40:22Z</time>
 </trkpt>
 <trkpt lat="51.24348" lon="6.771958">
 <ele>98.0</ele>
 <time>2014-06-07T20:40:28Z</time>
 </trkpt>
 <trkpt lat="51.243213" lon="6.772229">
 <ele>97.0</ele>
 <time>2014-06-07T20:40:33Z</time>
 </trkpt>
 <trkpt lat="51.242929" lon="6.772522">
 <ele>96.0</ele>
 <time>2014-06-07T20:40:38Z</time>
 </trkpt>
 <trkpt lat="51.242648" lon="6.772818">
 <ele>95.0</ele>
 <time>2014-06-07T20:40:43Z</time>
 </trkpt>
 <trkpt lat="51.242211" lon="6.773153">
 <ele>93.0</ele>
 <time>2014-06-07T20:40:50Z</time>
 </trkpt>
 <trkpt lat="51.241895" lon="6.773376">
 <ele>94.0</ele>
 <time>2014-06-07T20:40:55Z</time>
 </trkpt>
 <trkpt lat="51.2415" lon="6.773605">
 <ele>96.0</ele>
 <time>2014-06-07T20:41:01Z</time>
 </trkpt>
 <trkpt lat="51.241142" lon="6.773798">
 <ele>94.0</ele>
 <time>2014-06-07T20:41:06Z</time>
 </trkpt>
 <trkpt lat="51.240735" lon="6.774003">
 <ele>95.0</ele>
 <time>2014-06-07T20:41:12Z</time>
 </trkpt>
 <trkpt lat="51.240396" lon="6.774168">
 <ele>95.0</ele>
 <time>2014-06-07T20:41:17Z</time>
 </trkpt>
 <trkpt lat="51.240093" lon="6.77438">
 <ele>95.0</ele>
 <time>2014-06-07T20:41:22Z</time>
 </trkpt>
 <trkpt lat="51.240002" lon="6.774914">
 <ele>85.0</ele>
 <time>2014-06-07T20:41:28Z</time>
 </trkpt>
 <trkpt lat="51.240125" lon="6.775426">
 <ele>85.0</ele>
 <time>2014-06-07T20:41:33Z</time>
 </trkpt>
 <trkpt lat="51.240292" lon="6.776022">
 <ele>84.0</ele>
 <time>2014-06-07T20:41:39Z</time>
 </trkpt>
 <trkpt lat="51.24049" lon="6.776687">
 <ele>85.0</ele>
 <time>2014-06-07T20:41:46Z</time>
 </trkpt>
 <trkpt lat="51.240626" lon="6.777132">
 <ele>83.0</ele>
 <time>2014-06-07T20:41:52Z</time>
 </trkpt>
 <trkpt lat="51.240833" lon="6.777669">
 <ele>84.0</ele>
 <time>2014-06-07T20:41:57Z</time>
 </trkpt>
 <trkpt lat="51.240976" lon="6.778102">
 <ele>80.0</ele>
 <time>2014-06-07T20:42:03Z</time>
 </trkpt>
 <trkpt lat="51.241204" lon="6.778619">
 <ele>80.0</ele>
 <time>2014-06-07T20:42:08Z</time>
 </trkpt>
 <trkpt lat="51.241399" lon="6.779202">
 <ele>80.0</ele>
 <time>2014-06-07T20:42:15Z</time>
 </trkpt>
 <trkpt lat="51.241564" lon="6.779742">
 <ele>83.0</ele>
 <time>2014-06-07T20:42:20Z</time>
 </trkpt>
 <trkpt lat="51.241725" lon="6.780197">
 <ele>87.0</ele>
 <time>2014-06-07T20:42:25Z</time>
 </trkpt>
 <trkpt lat="51.241889" lon="6.78075">
 <ele>83.0</ele>
 <time>2014-06-07T20:42:31Z</time>
 </trkpt>
 <trkpt lat="51.242051" lon="6.781223">
 <ele>82.0</ele>
 <time>2014-06-07T20:42:36Z</time>
 </trkpt>
 <trkpt lat="51.242195" lon="6.78167">
 <ele>83.0</ele>
 <time>2014-06-07T20:42:41Z</time>
 </trkpt>
 <trkpt lat="51.242216" lon="6.782115">
 <ele>85.0</ele>
 <time>2014-06-07T20:42:47Z</time>
 </trkpt>
 <trkpt lat="51.242274" lon="6.78232">
 <ele>84.0</ele>
 <time>2014-06-07T20:42:54Z</time>
 </trkpt>
 <trkpt lat="51.242382" lon="6.782518">
 <ele>86.0</ele>
 <time>2014-06-07T20:42:59Z</time>
 </trkpt>
 <trkpt lat="51.242408" lon="6.782774">
 <ele>85.0</ele>
 <time>2014-06-07T20:43:02Z</time>
 </trkpt>
 <trkpt lat="51.242442" lon="6.783096">
 <ele>84.0</ele>
 <time>2014-06-07T20:43:06Z</time>
 </trkpt>
 <trkpt lat="51.242492" lon="6.783642">
 <ele>85.0</ele>
 <time>2014-06-07T20:43:12Z</time>
 </trkpt>
 <trkpt lat="51.242468" lon="6.784174">
 <ele>83.0</ele>
 <time>2014-06-07T20:43:18Z</time>
 </trkpt>
 <trkpt lat="51.242443" lon="6.78471">
 <ele>80.0</ele>
 <time>2014-06-07T20:43:24Z</time>
 </trkpt>
 <trkpt lat="51.242483" lon="6.785176">
 <ele>79.0</ele>
 <time>2014-06-07T20:43:29Z</time>
 </trkpt>
 <trkpt lat="51.242542" lon="6.785732">
 <ele>77.0</ele>
 <time>2014-06-07T20:43:36Z</time>
 </trkpt>
 <trkpt lat="51.242668" lon="6.786389">
 <ele>84.0</ele>
 <time>2014-06-07T20:43:41Z</time>
 </trkpt>
 <trkpt lat="51.242693" lon="6.78706">
 <ele>81.0</ele>
 <time>2014-06-07T20:43:47Z</time>
 </trkpt>
 <trkpt lat="51.242733" lon="6.787599">
 <ele>81.0</ele>
 <time>2014-06-07T20:43:52Z</time>
 </trkpt>
 <trkpt lat="51.242695" lon="6.788411">
 <ele>79.0</ele>
 <time>2014-06-07T20:43:59Z</time>
 </trkpt>
 <trkpt lat="51.24273" lon="6.788955">
 <ele>81.0</ele>
 <time>2014-06-07T20:44:04Z</time>
 </trkpt>
 <trkpt lat="51.24285" lon="6.789555">
 <ele>82.0</ele>
 <time>2014-06-07T20:44:10Z</time>
 </trkpt>
 <trkpt lat="51.242974" lon="6.79005">
 <ele>81.0</ele>
 <time>2014-06-07T20:44:16Z</time>
 </trkpt>
 <trkpt lat="51.243081" lon="6.79061">
 <ele>78.0</ele>
 <time>2014-06-07T20:44:22Z</time>
 </trkpt>
 <trkpt lat="51.243228" lon="6.791085">
 <ele>82.0</ele>
 <time>2014-06-07T20:44:28Z</time>
 </trkpt>
 <trkpt lat="51.243295" lon="6.7915">
 <ele>82.0</ele>
 <time>2014-06-07T20:44:34Z</time>
 </trkpt>
 <trkpt lat="51.243313" lon="6.791995">
 <ele>84.0</ele>
 <time>2014-06-07T20:44:39Z</time>
 </trkpt>
 <trkpt lat="51.243312" lon="6.792228">
 <ele>86.0</ele>
 <time>2014-06-07T20:44:43Z</time>
 </trkpt>
 <trkpt lat="51.243346" lon="6.792706">
 <ele>87.0</ele>
 <time>2014-06-07T20:44:48Z</time>
 </trkpt>
 <trkpt lat="51.243349" lon="6.793168">
 <ele>86.0</ele>
 <time>2014-06-07T20:44:54Z</time>
 </trkpt>
 <trkpt lat="51.24335" lon="6.793579">
 <ele>87.0</ele>
 <time>2014-06-07T20:45:00Z</time>
 </trkpt>
 <trkpt lat="51.24339" lon="6.79396">
 <ele>91.0</ele>
 <time>2014-06-07T20:45:06Z</time>
 </trkpt>
 <trkpt lat="51.24341" lon="6.794373">
 <ele>92.0</ele>
 <time>2014-06-07T20:45:13Z</time>
 </trkpt>
 <trkpt lat="51.243447" lon="6.794844">
 <ele>93.0</ele>
 <time>2014-06-07T20:45:20Z</time>
 </trkpt>
 <trkpt lat="51.243258" lon="6.795072">
 <ele>93.0</ele>
 <time>2014-06-07T20:45:25Z</time>
 </trkpt>
 <trkpt lat="51.242924" lon="6.795223">
 <ele>90.0</ele>
 <time>2014-06-07T20:45:30Z</time>
 </trkpt>
 <trkpt lat="51.242402" lon="6.795461">
 <ele>87.0</ele>
 <time>2014-06-07T20:45:36Z</time>
 </trkpt>
 <trkpt lat="51.241726" lon="6.795849">
 <ele>87.0</ele>
 <time>2014-06-07T20:45:43Z</time>
 </trkpt>
 <trkpt lat="51.241107" lon="6.796107">
 <ele>88.0</ele>
 <time>2014-06-07T20:45:50Z</time>
 </trkpt>
 <trkpt lat="51.240671" lon="6.796301">
 <ele>92.0</ele>
 <time>2014-06-07T20:45:56Z</time>
 </trkpt>
 <trkpt lat="51.240178" lon="6.796375">
 <ele>89.0</ele>
 <time>2014-06-07T20:46:01Z</time>
 </trkpt>
 <trkpt lat="51.23973" lon="6.796473">
 <ele>91.0</ele>
 <time>2014-06-07T20:46:07Z</time>
 </trkpt>
 <trkpt lat="51.239292" lon="6.796442">
 <ele>91.0</ele>
 <time>2014-06-07T20:46:14Z</time>
 </trkpt>
 <trkpt lat="51.238901" lon="6.796423">
 <ele>92.0</ele>
 <time>2014-06-07T20:46:19Z</time>
 </trkpt>
 <trkpt lat="51.238517" lon="6.796389">
 <ele>88.0</ele>
 <time>2014-06-07T20:46:25Z</time>
 </trkpt>
 <trkpt lat="51.23811" lon="6.796355">
 <ele>88.0</ele>
 <time>2014-06-07T20:46:30Z</time>
 </trkpt>
 <trkpt lat="51.237798" lon="6.79634">
 <ele>90.0</ele>
 <time>2014-06-07T20:46:35Z</time>
 </trkpt>
 <trkpt lat="51.23744" lon="6.796318">
 <ele>88.0</ele>
 <time>2014-06-07T20:46:41Z</time>
 </trkpt>
 <trkpt lat="51.237033" lon="6.79634">
 <ele>88.0</ele>
 <time>2014-06-07T20:46:47Z</time>
 </trkpt>
 <trkpt lat="51.236644" lon="6.796307">
 <ele>89.0</ele>
 <time>2014-06-07T20:46:53Z</time>
 </trkpt>
 <trkpt lat="51.236188" lon="6.796463">
 <ele>94.0</ele>
 <time>2014-06-07T20:47:00Z</time>
 </trkpt>
 <trkpt lat="51.235803" lon="6.796395">
 <ele>92.0</ele>
 <time>2014-06-07T20:47:06Z</time>
 </trkpt>
 <trkpt lat="51.23542" lon="6.796394">
 <ele>94.0</ele>
 <time>2014-06-07T20:47:12Z</time>
 </trkpt>
 <trkpt lat="51.235106" lon="6.79639">
 <ele>93.0</ele>
 <time>2014-06-07T20:47:17Z</time>
 </trkpt>
 <trkpt lat="51.234907" lon="6.796404">
 <ele>91.0</ele>
 <time>2014-06-07T20:47:20Z</time>
 </trkpt>
 <trkpt lat="51.234724" lon="6.796421">
 <ele>90.0</ele>
 <time>2014-06-07T20:47:23Z</time>
 </trkpt>
 <trkpt lat="51.234421" lon="6.796441">
 <ele>89.0</ele>
 <time>2014-06-07T20:47:28Z</time>
 </trkpt>
 <trkpt lat="51.234064" lon="6.796453">
 <ele>89.0</ele>
 <time>2014-06-07T20:47:34Z</time>
 </trkpt>
 <trkpt lat="51.233752" lon="6.796481">
 <ele>89.0</ele>
 <time>2014-06-07T20:47:39Z</time>
 </trkpt>
 <trkpt lat="51.233449" lon="6.796491">
 <ele>87.0</ele>
 <time>2014-06-07T20:47:44Z</time>
 </trkpt>
 <trkpt lat="51.233134" lon="6.796548">
 <ele>88.0</ele>
 <time>2014-06-07T20:47:49Z</time>
 </trkpt>
 <trkpt lat="51.232754" lon="6.796585">
 <ele>89.0</ele>
 <time>2014-06-07T20:47:55Z</time>
 </trkpt>
 <trkpt lat="51.232295" lon="6.796669">
 <ele>91.0</ele>
 <time>2014-06-07T20:48:02Z</time>
 </trkpt>
 <trkpt lat="51.232002" lon="6.796658">
 <ele>91.0</ele>
 <time>2014-06-07T20:48:07Z</time>
 </trkpt>
 <trkpt lat="51.231662" lon="6.796645">
 <ele>88.0</ele>
 <time>2014-06-07T20:48:13Z</time>
 </trkpt>
 <trkpt lat="51.231348" lon="6.79652">
 <ele>85.0</ele>
 <time>2014-06-07T20:48:18Z</time>
 </trkpt>
 <trkpt lat="51.231089" lon="6.796294">
 <ele>87.0</ele>
 <time>2014-06-07T20:48:23Z</time>
 </trkpt>
 <trkpt lat="51.23095" lon="6.79615">
 <ele>88.0</ele>
 <time>2014-06-07T20:48:26Z</time>
 </trkpt>
 <trkpt lat="51.230719" lon="6.795976">
 <ele>90.0</ele>
 <time>2014-06-07T20:48:32Z</time>
 </trkpt>
 <trkpt lat="51.230418" lon="6.795995">
 <ele>92.0</ele>
 <time>2014-06-07T20:48:37Z</time>
 </trkpt>
 <trkpt lat="51.230098" lon="6.795943">
 <ele>91.0</ele>
 <time>2014-06-07T20:48:44Z</time>
 </trkpt>
 <trkpt lat="51.229926" lon="6.795962">
 <ele>92.0</ele>
 <time>2014-06-07T20:48:49Z</time>
 </trkpt>
 <trkpt lat="51.229926" lon="6.795962">
 <ele>92.0</ele>
 <time>2014-06-07T20:48:55Z</time>
 </trkpt>
 <trkpt lat="51.229926" lon="6.795962">
 <time>2014-06-07T20:48:55Z</time>
 </trkpt>
 </trkseg>
 <trkseg>
 <trkpt lat="51.229926" lon="6.795962">
 <time>2014-06-07T20:49:03Z</time>
 </trkpt>
 <trkpt lat="51.229926" lon="6.795962">
 <time>2014-06-07T20:49:07Z</time>
 </trkpt>
 </trkseg>
 <trkseg>
 <trkpt lat="51.229926" lon="6.795962">
 <time>2014-06-07T20:49:20Z</time>
 </trkpt>
 <trkpt lat="51.229768" lon="6.797311">
 <ele>100.0</ele>
 <time>2014-06-07T20:49:20Z</time>
 </trkpt>
 <trkpt lat="51.229856" lon="6.797729">
 <ele>98.0</ele>
 <time>2014-06-07T20:49:26Z</time>
 </trkpt>
 <trkpt lat="51.229904" lon="6.797954">
 <ele>95.0</ele>
 <time>2014-06-07T20:49:29Z</time>
 </trkpt>
 <trkpt lat="51.229975" lon="6.798509">
 <ele>96.0</ele>
 <time>2014-06-07T20:49:35Z</time>
 </trkpt>
 <trkpt lat="51.230073" lon="6.799129">
 <ele>93.0</ele>
 <time>2014-06-07T20:49:41Z</time>
 </trkpt>
 <trkpt lat="51.230163" lon="6.799657">
 <ele>91.0</ele>
 <time>2014-06-07T20:49:47Z</time>
 </trkpt>
 <trkpt lat="51.230321" lon="6.800347">
 <ele>86.0</ele>
 <time>2014-06-07T20:49:52Z</time>
 </trkpt>
 <trkpt lat="51.230419" lon="6.800943">
 <ele>85.0</ele>
 <time>2014-06-07T20:49:57Z</time>
 </trkpt>
 <trkpt lat="51.230533" lon="6.801456">
 <ele>83.0</ele>
 <time>2014-06-07T20:50:03Z</time>
 </trkpt>
 <trkpt lat="51.230622" lon="6.802014">
 <ele>83.0</ele>
 <time>2014-06-07T20:50:09Z</time>
 </trkpt>
 <trkpt lat="51.230718" lon="6.802574">
 <ele>83.0</ele>
 <time>2014-06-07T20:50:16Z</time>
 </trkpt>
 <trkpt lat="51.230821" lon="6.803148">
 <ele>84.0</ele>
 <time>2014-06-07T20:50:21Z</time>
 </trkpt>
 <trkpt lat="51.230886" lon="6.8036">
 <ele>83.0</ele>
 <time>2014-06-07T20:50:26Z</time>
 </trkpt>
 <trkpt lat="51.230989" lon="6.804116">
 <ele>84.0</ele>
 <time>2014-06-07T20:50:31Z</time>
 </trkpt>
 <trkpt lat="51.231051" lon="6.804712">
 <ele>83.0</ele>
 <time>2014-06-07T20:50:37Z</time>
 </trkpt>
 <trkpt lat="51.231134" lon="6.805191">
 <ele>80.0</ele>
 <time>2014-06-07T20:50:42Z</time>
 </trkpt>
 <trkpt lat="51.231218" lon="6.805784">
 <ele>84.0</ele>
 <time>2014-06-07T20:50:48Z</time>
 </trkpt>
 <trkpt lat="51.231304" lon="6.806224">
 <ele>81.0</ele>
 <time>2014-06-07T20:50:53Z</time>
 </trkpt>
 <trkpt lat="51.231406" lon="6.806792">
 <ele>84.0</ele>
 <time>2014-06-07T20:50:59Z</time>
 </trkpt>
 <trkpt lat="51.231538" lon="6.807357">
 <ele>83.0</ele>
 <time>2014-06-07T20:51:05Z</time>
 </trkpt>
 <trkpt lat="51.231653" lon="6.8079">
 <ele>84.0</ele>
 <time>2014-06-07T20:51:11Z</time>
 </trkpt>
 <trkpt lat="51.231791" lon="6.808456">
 <ele>85.0</ele>
 <time>2014-06-07T20:51:17Z</time>
 </trkpt>
 <trkpt lat="51.231699" lon="6.808605">
 <ele>85.0</ele>
 <time>2014-06-07T20:51:27Z</time>
 </trkpt>
 <trkpt lat="51.231699" lon="6.808605">
 <ele>85.0</ele>
 <time>2014-06-07T20:51:35Z</time>
 </trkpt>
 <trkpt lat="51.231699" lon="6.808605">
 <time>2014-06-07T20:51:36Z</time>
 </trkpt>
 </trkseg>
 <trkseg>
 <trkpt lat="51.231699" lon="6.808605">
 <time>2014-06-07T20:53:22Z</time>
 </trkpt>
 <trkpt lat="51.231501" lon="6.808785">
 <ele>89.0</ele>
 <time>2014-06-07T20:53:30Z</time>
 </trkpt>
 <trkpt lat="51.231296" lon="6.808924">
 <ele>89.0</ele>
 <time>2014-06-07T20:53:36Z</time>
 </trkpt>
 <trkpt lat="51.231198" lon="6.808999">
 <ele>88.0</ele>
 <time>2014-06-07T20:53:39Z</time>
 </trkpt>
 <trkpt lat="51.231026" lon="6.80914">
 <ele>89.0</ele>
 <time>2014-06-07T20:53:44Z</time>
 </trkpt>
 <trkpt lat="51.230853" lon="6.809249">
 <ele>92.0</ele>
 <time>2014-06-07T20:53:49Z</time>
 </trkpt>
 <trkpt lat="51.230585" lon="6.809415">
 <ele>92.0</ele>
 <time>2014-06-07T20:53:57Z</time>
 </trkpt>
 <trkpt lat="51.23035" lon="6.809574">
 <ele>91.0</ele>
 <time>2014-06-07T20:54:02Z</time>
 </trkpt>
 <trkpt lat="51.230064" lon="6.809749">
 <ele>89.0</ele>
 <time>2014-06-07T20:54:07Z</time>
 </trkpt>
 <trkpt lat="51.229623" lon="6.809997">
 <ele>98.0</ele>
 <time>2014-06-07T20:54:14Z</time>
 </trkpt>
 <trkpt lat="51.229211" lon="6.810196">
 <ele>92.0</ele>
 <time>2014-06-07T20:54:20Z</time>
 </trkpt>
 <trkpt lat="51.22889" lon="6.810445">
 <ele>96.0</ele>
 <time>2014-06-07T20:54:26Z</time>
 </trkpt>
 <trkpt lat="51.228582" lon="6.810645">
 <ele>97.0</ele>
 <time>2014-06-07T20:54:32Z</time>
 </trkpt>
 <trkpt lat="51.228186" lon="6.810835">
 <ele>89.0</ele>
 <time>2014-06-07T20:54:37Z</time>
 </trkpt>
 <trkpt lat="51.228015" lon="6.810937">
 <ele>91.0</ele>
 <time>2014-06-07T20:54:40Z</time>
 </trkpt>
 <trkpt lat="51.227718" lon="6.811078">
 <ele>88.0</ele>
 <time>2014-06-07T20:54:45Z</time>
 </trkpt>
 <trkpt lat="51.227415" lon="6.81124">
 <ele>89.0</ele>
 <time>2014-06-07T20:54:51Z</time>
 </trkpt>
 <trkpt lat="51.227234" lon="6.811445">
 <ele>89.0</ele>
 <time>2014-06-07T20:54:56Z</time>
 </trkpt>
 <trkpt lat="51.227365" lon="6.811766">
 <ele>89.0</ele>
 <time>2014-06-07T20:55:02Z</time>
 </trkpt>
 <trkpt lat="51.227605" lon="6.812145">
 <ele>88.0</ele>
 <time>2014-06-07T20:55:08Z</time>
 </trkpt>
 <trkpt lat="51.227752" lon="6.812475">
 <ele>87.0</ele>
 <time>2014-06-07T20:55:13Z</time>
 </trkpt>
 <trkpt lat="51.227944" lon="6.812864">
 <ele>89.0</ele>
 <time>2014-06-07T20:55:19Z</time>
 </trkpt>
 <trkpt lat="51.228099" lon="6.81319">
 <ele>89.0</ele>
 <time>2014-06-07T20:55:25Z</time>
 </trkpt>
 <trkpt lat="51.228286" lon="6.81369">
 <ele>90.0</ele>
 <time>2014-06-07T20:55:31Z</time>
 </trkpt>
 <trkpt lat="51.228377" lon="6.814147">
 <ele>91.0</ele>
 <time>2014-06-07T20:55:37Z</time>
 </trkpt>
 <trkpt lat="51.22841" lon="6.814511">
 <ele>91.0</ele>
 <time>2014-06-07T20:55:43Z</time>
 </trkpt>
 <trkpt lat="51.228503" lon="6.814804">
 <ele>88.0</ele>
 <time>2014-06-07T20:55:50Z</time>
 </trkpt>
 <trkpt lat="51.228603" lon="6.814523">
 <ele>88.0</ele>
 <time>2014-06-07T20:55:59Z</time>
 </trkpt>
 <trkpt lat="51.228769" lon="6.81435">
 <ele>93.0</ele>
 <time>2014-06-07T20:56:07Z</time>
 </trkpt>
 <trkpt lat="51.228936" lon="6.814253">
 <ele>102.0</ele>
 <time>2014-06-07T20:56:16Z</time>
 </trkpt>
 <trkpt lat="51.228936" lon="6.814253">
 <ele>102.0</ele>
 <time>2014-06-07T20:56:22Z</time>
 </trkpt>
 <trkpt lat="51.228936" lon="6.814253">
 <time>2014-06-07T20:56:22Z</time>
 </trkpt>
 </trkseg>
 <trkseg>
 <trkpt lat="51.228936" lon="6.814253">
 <time>2014-06-07T20:57:45Z</time>
 </trkpt>
 <trkpt lat="51.229328" lon="6.813951">
 <ele>98.0</ele>
 <time>2014-06-07T20:57:50Z</time>
 </trkpt>
 <trkpt lat="51.229598" lon="6.813685">
 <ele>98.0</ele>
 <time>2014-06-07T20:57:56Z</time>
 </trkpt>
 <trkpt lat="51.22991" lon="6.813402">
 <ele>95.0</ele>
 <time>2014-06-07T20:58:02Z</time>
 </trkpt>
 <trkpt lat="51.230245" lon="6.813178">
 <ele>93.0</ele>
 <time>2014-06-07T20:58:08Z</time>
 </trkpt>
 <trkpt lat="51.230481" lon="6.812947">
 <ele>86.0</ele>
 <time>2014-06-07T20:58:13Z</time>
 </trkpt>
 <trkpt lat="51.230757" lon="6.812712">
 <ele>86.0</ele>
 <time>2014-06-07T20:58:18Z</time>
 </trkpt>
 <trkpt lat="51.2311" lon="6.812436">
 <ele>88.0</ele>
 <time>2014-06-07T20:58:24Z</time>
 </trkpt>
 <trkpt lat="51.231409" lon="6.812225">
 <ele>83.0</ele>
 <time>2014-06-07T20:58:29Z</time>
 </trkpt>
 <trkpt lat="51.231659" lon="6.812058">
 <ele>84.0</ele>
 <time>2014-06-07T20:58:34Z</time>
 </trkpt>
 <trkpt lat="51.231876" lon="6.811991">
 <ele>86.0</ele>
 <time>2014-06-07T20:58:38Z</time>
 </trkpt>
 <trkpt lat="51.232147" lon="6.811939">
 <ele>89.0</ele>
 <time>2014-06-07T20:58:43Z</time>
 </trkpt>
 <trkpt lat="51.232338" lon="6.811733">
 <ele>88.0</ele>
 <time>2014-06-07T20:58:48Z</time>
 </trkpt>
 <trkpt lat="51.232392" lon="6.811216">
 <ele>88.0</ele>
 <time>2014-06-07T20:58:55Z</time>
 </trkpt>
 <trkpt lat="51.232274" lon="6.810809">
 <ele>87.0</ele>
 <time>2014-06-07T20:59:00Z</time>
 </trkpt>
 <trkpt lat="51.232139" lon="6.810258">
 <ele>87.0</ele>
 <time>2014-06-07T20:59:06Z</time>
 </trkpt>
 <trkpt lat="51.232017" lon="6.809779">
 <ele>89.0</ele>
 <time>2014-06-07T20:59:11Z</time>
 </trkpt>
 <trkpt lat="51.231895" lon="6.809299">
 <ele>89.0</ele>
 <time>2014-06-07T20:59:16Z</time>
 </trkpt>
 <trkpt lat="51.231752" lon="6.808899">
 <ele>87.0</ele>
 <time>2014-06-07T20:59:21Z</time>
 </trkpt>
 <trkpt lat="51.231719" lon="6.808427">
 <ele>88.0</ele>
 <time>2014-06-07T20:59:26Z</time>
 </trkpt>
 <trkpt lat="51.231619" lon="6.807917">
 <ele>89.0</ele>
 <time>2014-06-07T20:59:31Z</time>
 </trkpt>
 <trkpt lat="51.23151" lon="6.807443">
 <ele>93.0</ele>
 <time>2014-06-07T20:59:36Z</time>
 </trkpt>
 <trkpt lat="51.23142" lon="6.807051">
 <ele>91.0</ele>
 <time>2014-06-07T20:59:40Z</time>
 </trkpt>
 <trkpt lat="51.231337" lon="6.806749">
 <ele>88.0</ele>
 <time>2014-06-07T20:59:43Z</time>
 </trkpt>
 <trkpt lat="51.231248" lon="6.806149">
 <ele>88.0</ele>
 <time>2014-06-07T20:59:49Z</time>
 </trkpt>
 <trkpt lat="51.231141" lon="6.805533">
 <ele>88.0</ele>
 <time>2014-06-07T20:59:55Z</time>
 </trkpt>
 <trkpt lat="51.231058" lon="6.805019">
 <ele>88.0</ele>
 <time>2014-06-07T21:00:00Z</time>
 </trkpt>
 <trkpt lat="51.230975" lon="6.804521">
 <ele>89.0</ele>
 <time>2014-06-07T21:00:05Z</time>
 </trkpt>
 <trkpt lat="51.230866" lon="6.803925">
 <ele>89.0</ele>
 <time>2014-06-07T21:00:11Z</time>
 </trkpt>
 <trkpt lat="51.230767" lon="6.803416">
 <ele>83.0</ele>
 <time>2014-06-07T21:00:16Z</time>
 </trkpt>
 <trkpt lat="51.230719" lon="6.803108">
 <ele>83.0</ele>
 <time>2014-06-07T21:00:19Z</time>
 </trkpt>
 <trkpt lat="51.230636" lon="6.802546">
 <ele>93.0</ele>
 <time>2014-06-07T21:00:25Z</time>
 </trkpt>
 <trkpt lat="51.230564" lon="6.802044">
 <ele>93.0</ele>
 <time>2014-06-07T21:00:30Z</time>
 </trkpt>
 <trkpt lat="51.230449" lon="6.801489">
 <ele>91.0</ele>
 <time>2014-06-07T21:00:36Z</time>
 </trkpt>
 <trkpt lat="51.230382" lon="6.801021">
 <ele>90.0</ele>
 <time>2014-06-07T21:00:41Z</time>
 </trkpt>
 <trkpt lat="51.230249" lon="6.800659">
 <ele>93.0</ele>
 <time>2014-06-07T21:00:46Z</time>
 </trkpt>
 <trkpt lat="51.230186" lon="6.800192">
 <ele>92.0</ele>
 <time>2014-06-07T21:00:51Z</time>
 </trkpt>
 <trkpt lat="51.230114" lon="6.799695">
 <ele>90.0</ele>
 <time>2014-06-07T21:00:57Z</time>
 </trkpt>
 <trkpt lat="51.230037" lon="6.799377">
 <ele>91.0</ele>
 <time>2014-06-07T21:01:02Z</time>
 </trkpt>
 <trkpt lat="51.229944" lon="6.798902">
 <ele>93.0</ele>
 <time>2014-06-07T21:01:09Z</time>
 </trkpt>
 <trkpt lat="51.22996" lon="6.798473">
 <ele>99.0</ele>
 <time>2014-06-07T21:01:15Z</time>
 </trkpt>
 <trkpt lat="51.229818" lon="6.798329">
 <ele>108.0</ele>
 <time>2014-06-07T21:01:20Z</time>
 </trkpt>
 <trkpt lat="51.229519" lon="6.79842">
 <ele>107.0</ele>
 <time>2014-06-07T21:01:26Z</time>
 </trkpt>
 <trkpt lat="51.229345" lon="6.798561">
 <ele>106.0</ele>
 <time>2014-06-07T21:01:31Z</time>
 </trkpt>
 <trkpt lat="51.229345" lon="6.798561">
 <ele>106.0</ele>
 <time>2014-06-07T21:01:36Z</time>
 </trkpt>
 <trkpt lat="51.229345" lon="6.798561">
 <time>2014-06-07T21:01:37Z</time>
 </trkpt>
 </trkseg>
 <trkseg>
 <trkpt lat="51.229345" lon="6.798561">
 <time>2014-06-07T21:01:49Z</time>
 </trkpt>
 </trkseg>
 </trk>
</gpx>